NOAA Web Site Link Tides and Currents Home Page Transparent placeholder image

PORTS® Data Listing: 8594900 Washington, DC

CO-OPS RAW PORTS DATA

************************      PRELIMINARY DATA      ************************** 

     THIS RAW DATA HAS NOT BEEN SUBJECT TO THE NATIONAL OCEAN SERVICE'S        
     QUALITY CONTROL OR QUALITY ASSURANCE PROCEDURES AND DOES NOT MEET         
     THE CRITERIA AND STANDARDS OF OFFICIAL NATIONAL OCEAN SERVICE             
     DATA.  IT IS RELEASED FOR LIMITED PUBLIC USE AS PRELIMINARY DATA TO       
     BE USED ONLY WITH APPROPRIATE CAUTION.                                    

************************      PRELIMINARY DATA      ************************** 


       CD   -   Calendar date
       T    -   Time
       TZ   -   Timezone
       PW   -   Predicted water level (feet above MLLW)
       OW   -   Observed water level (feet above MLLW)
       WS   -   Wind speed (knots)
       WD   -   Wind direction (degrees true)
       WG   -   Wind gust (knots)
       AT   -   Air temperature (degrees farenheit)
       WT   -   Water temperature (degrees farenheit)
       AP   -   Air pressure (millibars)
       SA   -   Salinty (PSU - Practical Salinity Units)
       SG   -   Specific gravity
       RH   -   Relative humidity
       AG   -   Air gap (feet)
       VI   -   Visibility (nautical miles)

       ** NOTE **
       A variable that has its data fields filled with "9"s, indicates that
       data was not collected for that sample period.
       **********


STATION NAME: Washington (8594900)
****************************************************************************************************
    CD       T    TZ    PW     OW    WS   WD   WG    AT    WT    AP    SA    SG     RH    AG   VI
****************************************************************************************************
2018/12/11 02:42 EST    0.71   1.83    2  299    2  29.5  40.3 1023.1 -9.9 -9.999 -99.9 -99.99 -9.99
2018/12/11 02:48 EST    0.67   1.79    2  328    2  29.3  40.3 1023.1 -9.9 -9.999 -99.9 -99.99 -9.99
2018/12/11 02:54 EST    0.63   1.75    2  320    3  29.5  40.3 1023.0 -9.9 -9.999 -99.9 -99.99 -9.99
2018/12/11 03:00 EST    0.58   1.72    2  314    3  29.5  40.3 1023.0 -9.9 -9.999 -99.9 -99.99 -9.99
2018/12/11 03:06 EST    0.54   1.68    2  289    3  29.3  40.3 1022.9 -9.9 -9.999 -99.9 -99.99 -9.99
2018/12/11 03:12 EST    0.50   1.64    1  311    3  29.1  40.3 1022.9 -9.9 -9.999 -99.9 -99.99 -9.99
2018/12/11 03:18 EST    0.47   1.60    2  325    2  29.1  40.3 1022.8 -9.9 -9.999 -99.9 -99.99 -9.99
2018/12/11 03:24 EST    0.43   1.56    1  329    3  29.1  40.3 1022.7 -9.9 -9.999 -99.9 -99.99 -9.99
2018/12/11 03:30 EST    0.40   1.52    1  301    2  29.1  40.3 1022.6 -9.9 -9.999 -99.9 -99.99 -9.99
2018/12/11 03:36 EST    0.36   1.50    1  295    2  28.9  40.3 1022.5 -9.9 -9.999 -99.9 -99.99 -9.99
2018/12/11 03:42 EST    0.33 -99.99 -999 -999 -999 -99.9 -99.9 -999.9 -9.9 -9.999 -99.9 -99.99 -9.99
2018/12/11 03:48 EST    0.30   1.43    2  299    3  28.8  40.3 1022.5 -9.9 -9.999 -99.9 -99.99 -9.99
2018/12/11 03:54 EST    0.27   1.40    1  301    3  28.8  40.3 1022.5 -9.9 -9.999 -99.9 -99.99 -9.99
2018/12/11 04:00 EST    0.24   1.37    1  336    2  28.8  40.3 1022.4 -9.9 -9.999 -99.9 -99.99 -9.99
2018/12/11 04:06 EST    0.21   1.34    2  312    2  28.8  40.3 1022.4 -9.9 -9.999 -99.9 -99.99 -9.99
2018/12/11 04:12 EST    0.18   1.31    1  319    2  28.9  40.3 1022.4 -9.9 -9.999 -99.9 -99.99 -9.99
2018/12/11 04:18 EST    0.16   1.28    1  299    2  28.8  40.3 1022.3 -9.9 -9.999 -99.9 -99.99 -9.99
2018/12/11 04:24 EST    0.13   1.26    3  295    3  28.6  40.3 1022.2 -9.9 -9.999 -99.9 -99.99 -9.99
2018/12/11 04:30 EST    0.11   1.23    2  305    4  28.4  40.3 1022.2 -9.9 -9.999 -99.9 -99.99 -9.99
2018/12/11 04:36 EST    0.08   1.20    2  303    3  28.2  40.3 1022.2 -9.9 -9.999 -99.9 -99.99 -9.99
2018/12/11 04:42 EST    0.06   1.18    1  310    3  28.2  40.3 1022.2 -9.9 -9.999 -99.9 -99.99 -9.99
2018/12/11 04:48 EST    0.04   1.15    2  300    2  28.2  40.3 1022.2 -9.9 -9.999 -99.9 -99.99 -9.99
2018/12/11 04:54 EST    0.03   1.13    2  310    4  28.0  40.3 1022.2 -9.9 -9.999 -99.9 -99.99 -9.99
2018/12/11 05:00 EST    0.01   1.11    1  307    3  28.0  40.3 1022.3 -9.9 -9.999 -99.9 -99.99 -9.99
2018/12/11 05:06 EST   -0.00   1.09    3  306    4  28.0  40.3 1022.3 -9.9 -9.999 -99.9 -99.99 -9.99
2018/12/11 05:12 EST   -0.01   1.08    3  310    4  28.0  40.3 1022.4 -9.9 -9.999 -99.9 -99.99 -9.99
2018/12/11 05:18 EST   -0.02   1.06    3  306    5  28.0  40.3 1022.4 -9.9 -9.999 -99.9 -99.99 -9.99
2018/12/11 05:24 EST   -0.02   1.04    3  310    4  27.9  40.3 1022.5 -9.9 -9.999 -99.9 -99.99 -9.99
2018/12/11 05:30 EST   -0.02   1.02    3  306    5  28.0  40.3 1022.5 -9.9 -9.999 -99.9 -99.99 -9.99
2018/12/11 05:36 EST   -0.02   1.01    3  313    5  28.0  40.3 1022.5 -9.9 -9.999 -99.9 -99.99 -9.99
2018/12/11 05:42 EST   -0.01   1.00    3  318    5  28.0  40.3 1022.5 -9.9 -9.999 -99.9 -99.99 -9.99
2018/12/11 05:48 EST    0.01   0.99    4  318    5  28.0  40.3 1022.5 -9.9 -9.999 -99.9 -99.99 -9.99
2018/12/11 05:54 EST    0.02   0.98    3  315    5  28.0  40.3 1022.6 -9.9 -9.999 -99.9 -99.99 -9.99
2018/12/11 06:00 EST    0.05   0.98    4  306    5  28.0  40.3 1022.6 -9.9 -9.999 -99.9 -99.99 -9.99
2018/12/11 06:06 EST    0.07   0.98    3  307    5  28.0  40.3 1022.6 -9.9 -9.999 -99.9 -99.99 -9.99
2018/12/11 06:12 EST    0.11   0.98    4  301    5  28.0  40.3 1022.6 -9.9 -9.999 -99.9 -99.99 -9.99
2018/12/11 06:18 EST    0.15   0.99    3  303    5  27.9  40.3 1022.5 -9.9 -9.999 -99.9 -99.99 -9.99
2018/12/11 06:24 EST    0.19   1.00    3  300    4  27.7  40.3 1022.4 -9.9 -9.999 -99.9 -99.99 -9.99
2018/12/11 06:30 EST    0.24   1.02    2  299    4  27.7  40.3 1022.4 -9.9 -9.999 -99.9 -99.99 -9.99
2018/12/11 06:36 EST    0.29   1.04    1  286    3  27.5  40.3 1022.4 -9.9 -9.999 -99.9 -99.99 -9.99
2018/12/11 06:42 EST    0.35   1.07    2  292    2  27.3  40.3 1022.4 -9.9 -9.999 -99.9 -99.99 -9.99
2018/12/11 06:48 EST    0.41   1.11    2  301    3  27.1  40.3 1022.4 -9.9 -9.999 -99.9 -99.99 -9.99
2018/12/11 06:54 EST    0.48   1.16    2  297    5  27.1  40.3 1022.5 -9.9 -9.999 -99.9 -99.99 -9.99
2018/12/11 07:00 EST    0.55   1.21    2  297    4  27.3  40.3 1022.5 -9.9 -9.999 -99.9 -99.99 -9.99
2018/12/11 07:06 EST    0.62   1.27    3  308    4  27.1  40.3 1022.5 -9.9 -9.999 -99.9 -99.99 -9.99
2018/12/11 07:12 EST    0.70   1.33    2  303    4  27.3  40.3 1022.5 -9.9 -9.999 -99.9 -99.99 -9.99
2018/12/11 07:18 EST    0.77   1.40    2  316    4  27.1  40.3 1022.5 -9.9 -9.999 -99.9 -99.99 -9.99
2018/12/11 07:24 EST    0.85   1.48    2  301    3  27.1  40.3 1022.4 -9.9 -9.999 -99.9 -99.99 -9.99
2018/12/11 07:30 EST    0.93   1.55    2  312    4  27.1  40.3 1022.3 -9.9 -9.999 -99.9 -99.99 -9.99
2018/12/11 07:36 EST    1.02   1.63    3  317    3  27.3  40.3 1022.3 -9.9 -9.999 -99.9 -99.99 -9.99
2018/12/11 07:42 EST    1.10   1.71    2  301    4  27.5  40.3 1022.2 -9.9 -9.999 -99.9 -99.99 -9.99
2018/12/11 07:48 EST    1.18   1.79    2  285    3  27.5  40.3 1022.3 -9.9 -9.999 -99.9 -99.99 -9.99
2018/12/11 07:54 EST    1.26   1.87    2  281    3  27.3  40.3 1022.3 -9.9 -9.999 -99.9 -99.99 -9.99
2018/12/11 08:00 EST    1.34   1.96    1  262    2  27.7  40.3 1022.3 -9.9 -9.999 -99.9 -99.99 -9.99
2018/12/11 08:06 EST    1.41   2.04    0  271    2  28.2  40.3 1022.3 -9.9 -9.999 -99.9 -99.99 -9.99
2018/12/11 08:12 EST    1.49   2.12    2  300    3  28.8  40.3 1022.4 -9.9 -9.999 -99.9 -99.99 -9.99
2018/12/11 08:18 EST    1.56   2.20    2  295    3  29.3  40.3 1022.4 -9.9 -9.999 -99.9 -99.99 -9.99
2018/12/11 08:24 EST    1.63   2.28    2  308    4  29.7  40.3 1022.5 -9.9 -9.999 -99.9 -99.99 -9.99
2018/12/11 08:30 EST    1.70   2.36    3  299    4  30.0  40.1 1022.4 -9.9 -9.999 -99.9 -99.99 -9.99
2018/12/11 08:36 EST    1.77   2.43    3  307    4  30.4  40.1 1022.4 -9.9 -9.999 -99.9 -99.99 -9.99
2018/12/11 08:42 EST    1.83   2.50    2  305    3  30.9  40.1 1022.5 -9.9 -9.999 -99.9 -99.99 -9.99
2018/12/11 08:48 EST    1.89   2.56    3  293    4  31.3  40.1 1022.4 -9.9 -9.999 -99.9 -99.99 -9.99
2018/12/11 08:54 EST    1.94   2.63    3  295    4  31.5  40.1 1022.4 -9.9 -9.999 -99.9 -99.99 -9.99
2018/12/11 09:00 EST    2.00   2.69    4  298    5  31.6  40.1 1022.4 -9.9 -9.999 -99.9 -99.99 -9.99
2018/12/11 09:06 EST    2.05   2.74    3  298    4  32.0  40.1 1022.5 -9.9 -9.999 -99.9 -99.99 -9.99
2018/12/11 09:12 EST    2.09   2.79    3  292    4  32.4  40.1 1022.5 -9.9 -9.999 -99.9 -99.99 -9.99
2018/12/11 09:18 EST    2.14   2.84    4  294    5  32.5  40.1 1022.6 -9.9 -9.999 -99.9 -99.99 -9.99
2018/12/11 09:24 EST    2.18   2.88    4  295    4  33.1  40.1 1022.6 -9.9 -9.999 -99.9 -99.99 -9.99
2018/12/11 09:30 EST    2.22   2.93    4  295    5  32.9  40.1 1022.6 -9.9 -9.999 -99.9 -99.99 -9.99
2018/12/11 09:36 EST    2.25   2.96    4  296    5  33.8  40.1 1022.6 -9.9 -9.999 -99.9 -99.99 -9.99
2018/12/11 09:42 EST    2.28   3.00    4  295    6  33.8  40.1 1022.5 -9.9 -9.999 -99.9 -99.99 -9.99
2018/12/11 09:48 EST    2.31   3.03    3  312    5  34.3  40.1 1022.5 -9.9 -9.999 -99.9 -99.99 -9.99
2018/12/11 09:54 EST    2.34   3.06    3  291    5  34.7  40.1 1022.5 -9.9 -9.999 -99.9 -99.99 -9.99
2018/12/11 10:00 EST    2.36   3.10    4  283    6  34.7  40.1 1022.4 -9.9 -9.999 -99.9 -99.99 -9.99
2018/12/11 10:06 EST    2.38   3.12    4  306    5  35.2  40.1 1022.4 -9.9 -9.999 -99.9 -99.99 -9.99
2018/12/11 10:12 EST    2.40   3.14    2  314    5  35.6  40.1 1022.3 -9.9 -9.999 -99.9 -99.99 -9.99
2018/12/11 10:18 EST    2.42   3.16    2  264    3  36.0  40.1 1022.2 -9.9 -9.999 -99.9 -99.99 -9.99
2018/12/11 10:24 EST    2.43   3.17    2  294    4  36.5  40.1 1022.1 -9.9 -9.999 -99.9 -99.99 -9.99
2018/12/11 10:30 EST    2.43   3.19    3  290    5  36.9  40.1 1022.0 -9.9 -9.999 -99.9 -99.99 -9.99
2018/12/11 10:36 EST    2.44   3.19    4  297    5  36.7  40.1 1021.8 -9.9 -9.999 -99.9 -99.99 -9.99
2018/12/11 10:42 EST    2.44   3.20    4  325    5  37.0  40.1 1021.8 -9.9 -9.999 -99.9 -99.99 -9.99
2018/12/11 10:48 EST    2.44   3.21    3  337    5  37.4  40.1 1021.7 -9.9 -9.999 -99.9 -99.99 -9.99
2018/12/11 10:54 EST    2.43   3.21    2  326    4  38.1  40.1 1021.6 -9.9 -9.999 -99.9 -99.99 -9.99
2018/12/11 11:00 EST    2.43   3.20    2  337    3  37.8  40.1 1021.5 -9.9 -9.999 -99.9 -99.99 -9.99
2018/12/11 11:06 EST    2.41   3.19    3  321    4  38.3  40.1 1021.5 -9.9 -9.999 -99.9 -99.99 -9.99
2018/12/11 11:12 EST    2.40   3.18    2  341    4  38.8  40.1 1021.4 -9.9 -9.999 -99.9 -99.99 -9.99
2018/12/11 11:18 EST    2.38   3.17    3  332    4  38.7  40.1 1021.3 -9.9 -9.999 -99.9 -99.99 -9.99
2018/12/11 11:24 EST    2.35   3.15    3  325    4  39.2  40.1 1021.2 -9.9 -9.999 -99.9 -99.99 -9.99
2018/12/11 11:30 EST    2.33   3.13    1  349    4  39.4  40.1 1021.0 -9.9 -9.999 -99.9 -99.99 -9.99
2018/12/11 11:36 EST    2.30   3.11    3  330    5  39.6  40.1 1020.9 -9.9 -9.999 -99.9 -99.99 -9.99
2018/12/11 11:42 EST    2.26   3.08    4  322    5  39.4  40.1 1020.8 -9.9 -9.999 -99.9 -99.99 -9.99
2018/12/11 11:48 EST    2.23   3.05    3  324    6  39.7  40.1 1020.7 -9.9 -9.999 -99.9 -99.99 -9.99
2018/12/11 11:54 EST    2.19   3.02    4  327    6  40.3  40.1 1020.6 -9.9 -9.999 -99.9 -99.99 -9.99
2018/12/11 12:00 EST    2.14   2.98    5  320    7  40.5  40.1 1020.5 -9.9 -9.999 -99.9 -99.99 -9.99
2018/12/11 12:06 EST    2.10   2.95    5  311    7  40.5  40.1 1020.3 -9.9 -9.999 -99.9 -99.99 -9.99
2018/12/11 12:12 EST    2.05   2.90    3  310    7  40.5  40.1 1020.1 -9.9 -9.999 -99.9 -99.99 -9.99
2018/12/11 12:18 EST    2.00   2.86    4  331    7  41.0  40.1 1019.9 -9.9 -9.999 -99.9 -99.99 -9.99
2018/12/11 12:24 EST    1.95   2.82    4  338    6  40.8  40.1 1019.8 -9.9 -9.999 -99.9 -99.99 -9.99
2018/12/11 12:30 EST    1.90   2.78    4  330    7  41.2  40.1 1019.6 -9.9 -9.999 -99.9 -99.99 -9.99
2018/12/11 12:36 EST    1.84   2.74    5  315    6  41.4  40.1 1019.4 -9.9 -9.999 -99.9 -99.99 -9.99
2018/12/11 12:42 EST    1.79 -99.99 -999 -999 -999 -99.9 -99.9 -999.9 -9.9 -9.999 -99.9 -99.99 -9.99
2018/12/11 12:48 EST    1.73   2.63    4  316    6  41.9  40.1 1019.1 -9.9 -9.999 -99.9 -99.99 -9.99
2018/12/11 12:54 EST    1.67   2.58    3  337    6  42.1  40.1 1019.0 -9.9 -9.999 -99.9 -99.99 -9.99
2018/12/11 13:00 EST    1.61   2.54    4  325    7  42.6  40.1 1018.9 -9.9 -9.999 -99.9 -99.99 -9.99
2018/12/11 13:06 EST    1.56   2.49    4  323    6  43.0  40.1 1018.8 -9.9 -9.999 -99.9 -99.99 -9.99
2018/12/11 13:12 EST    1.50   2.44    6  327    7  43.0  40.1 1018.7 -9.9 -9.999 -99.9 -99.99 -9.99
2018/12/11 13:18 EST    1.44   2.39    2  339    7  43.9  40.1 1018.4 -9.9 -9.999 -99.9 -99.99 -9.99
2018/12/11 13:24 EST    1.38   2.34    4  328    7  44.2  40.1 1018.2 -9.9 -9.999 -99.9 -99.99 -9.99
2018/12/11 13:30 EST    1.32   2.28    4  323    7  44.2  40.1 1018.1 -9.9 -9.999 -99.9 -99.99 -9.99
2018/12/11 13:36 EST    1.26   2.23    4  324    8  43.9  40.1 1018.0 -9.9 -9.999 -99.9 -99.99 -9.99
2018/12/11 13:42 EST    1.20   2.17    3  353    7  43.9  40.1 1017.8 -9.9 -9.999 -99.9 -99.99 -9.99
2018/12/11 13:48 EST    1.14   2.12    3  358    5  43.7  40.1 1017.7 -9.9 -9.999 -99.9 -99.99 -9.99
2018/12/11 13:54 EST    1.08   2.07    2  353    5  43.9  40.1 1017.7 -9.9 -9.999 -99.9 -99.99 -9.99
2018/12/11 14:00 EST    1.02   2.01    1  303    5  44.2  40.1 1017.6 -9.9 -9.999 -99.9 -99.99 -9.99
2018/12/11 14:06 EST    0.97   1.96    0  303    2  44.6  40.1 1017.5 -9.9 -9.999 -99.9 -99.99 -9.99
2018/12/11 14:12 EST    0.91   1.90    2  298    3  44.8  40.1 1017.4 -9.9 -9.999 -99.9 -99.99 -9.99
2018/12/11 14:18 EST    0.85   1.84    3  308    7  44.6  40.1 1017.3 -9.9 -9.999 -99.9 -99.99 -9.99
2018/12/11 14:24 EST    0.80   1.79    6  309    9  44.6  40.1 1017.3 -9.9 -9.999 -99.9 -99.99 -9.99
2018/12/11 14:30 EST    0.75   1.75    5  316   10  44.4  40.1 1017.2 -9.9 -9.999 -99.9 -99.99 -9.99
2018/12/11 14:36 EST    0.69   1.70    6  268    8  44.4  40.1 1017.2 -9.9 -9.999 -99.9 -99.99 -9.99
2018/12/11 14:42 EST    0.64   1.65    3  281    7  44.4  40.1 1017.2 -9.9 -9.999 -99.9 -99.99 -9.99
2018/12/11 14:48 EST    0.60   1.60    5  255    6  44.6  40.1 1017.1 -9.9 -9.999 -99.9 -99.99 -9.99
2018/12/11 14:54 EST    0.55   1.57    2  230    6  44.6  40.1 1017.0 -9.9 -9.999 -99.9 -99.99 -9.99
2018/12/11 15:00 EST    0.50   1.53    3  245    4  45.1  40.1 1017.0 -9.9 -9.999 -99.9 -99.99 -9.99
2018/12/11 15:06 EST    0.46   1.49    5  250    7  45.0  40.1 1016.9 -9.9 -9.999 -99.9 -99.99 -9.99
2018/12/11 15:12 EST    0.42   1.45    3  268    6  45.3  40.1 1017.0 -9.9 -9.999 -99.9 -99.99 -9.99
2018/12/11 15:18 EST    0.38   1.41    2  273    4  46.2  40.1 1017.1 -9.9 -9.999 -99.9 -99.99 -9.99
2018/12/11 15:24 EST    0.34   1.37    4  279    8  45.7  40.1 1017.2 -9.9 -9.999 -99.9 -99.99 -9.99
2018/12/11 15:30 EST    0.31   1.33    2  268    5  46.0  40.1 1017.1 -9.9 -9.999 -99.9 -99.99 -9.99
2018/12/11 15:36 EST    0.27   1.29    4  254    5  45.9  40.1 1017.2 -9.9 -9.999 -99.9 -99.99 -9.99
2018/12/11 15:42 EST    0.24   1.27    4  247    7  45.7  40.1 1017.1 -9.9 -9.999 -99.9 -99.99 -9.99
2018/12/11 15:48 EST    0.21   1.24    4  260    6  45.3  40.1 1017.1 -9.9 -9.999 -99.9 -99.99 -9.99
2018/12/11 15:54 EST    0.19   1.21    4  236    6  45.3  40.1 1017.1 -9.9 -9.999 -99.9 -99.99 -9.99
2018/12/11 16:00 EST    0.16   1.18    4  243    6  45.1  40.1 1017.1 -9.9 -9.999 -99.9 -99.99 -9.99
2018/12/11 16:06 EST    0.14   1.15    3  239    5  45.3  40.1 1017.1 -9.9 -9.999 -99.9 -99.99 -9.99
2018/12/11 16:12 EST    0.12   1.13    6  246    6  44.6  40.1 1017.1 -9.9 -9.999 -99.9 -99.99 -9.99
2018/12/11 16:18 EST    0.10   1.11    5  247    7  44.1  40.1 1017.1 -9.9 -9.999 -99.9 -99.99 -9.99
2018/12/11 16:24 EST    0.08   1.09    4  250    6  43.7  40.1 1017.0 -9.9 -9.999 -99.9 -99.99 -9.99
2018/12/11 16:30 EST    0.07   1.07    3  249    5  43.5  40.1 1017.0 -9.9 -9.999 -99.9 -99.99 -9.99
2018/12/11 16:36 EST    0.05   1.05    2  213    4  43.3  40.1 1017.0 -9.9 -9.999 -99.9 -99.99 -9.99
2018/12/11 16:42 EST    0.04   1.03    3  186    4  42.8  40.1 1017.0 -9.9 -9.999 -99.9 -99.99 -9.99
2018/12/11 16:48 EST    0.03   1.02    4  179    6  41.5  40.1 1017.0 -9.9 -9.999 -99.9 -99.99 -9.99
2018/12/11 16:54 EST    0.03   1.00    4  194    7  41.2  40.1 1016.9 -9.9 -9.999 -99.9 -99.99 -9.99
2018/12/11 17:00 EST    0.02   0.99    5  199    8  41.0  40.1 1017.0 -9.9 -9.999 -99.9 -99.99 -9.99
2018/12/11 17:06 EST    0.02   0.97    4  202    6  41.0  40.1 1017.0 -9.9 -9.999 -99.9 -99.99 -9.99
2018/12/11 17:12 EST    0.02   0.96    5  199    7  40.8  40.1 1017.0 -9.9 -9.999 -99.9 -99.99 -9.99
2018/12/11 17:18 EST    0.02   0.94    5  196    8  40.8  40.1 1017.0 -9.9 -9.999 -99.9 -99.99 -9.99
2018/12/11 17:24 EST    0.02   0.93    6  206    7  40.8  40.1 1017.0 -9.9 -9.999 -99.9 -99.99 -9.99
2018/12/11 17:30 EST    0.03   0.92    5  202    8  40.8  40.1 1017.0 -9.9 -9.999 -99.9 -99.99 -9.99
2018/12/11 17:36 EST    0.04   0.92    5  190    6  40.6  40.1 1017.0 -9.9 -9.999 -99.9 -99.99 -9.99
2018/12/11 17:42 EST    0.05   0.92    4  194    6  40.5  40.1 1017.1 -9.9 -9.999 -99.9 -99.99 -9.99
2018/12/11 17:48 EST    0.07   0.92    4  194    6  40.3  40.1 1017.1 -9.9 -9.999 -99.9 -99.99 -9.99
2018/12/11 17:54 EST    0.09   0.92    4  204    6  40.1  40.1 1017.1 -9.9 -9.999 -99.9 -99.99 -9.99
2018/12/11 18:00 EST    0.11   0.92    4  194    5  40.1  40.1 1017.2 -9.9 -9.999 -99.9 -99.99 -9.99
2018/12/11 18:06 EST    0.14   0.94    3  192    5  39.9  40.1 1017.2 -9.9 -9.999 -99.9 -99.99 -9.99
2018/12/11 18:12 EST    0.17   0.96    2  196    4  39.7  40.1 1017.2 -9.9 -9.999 -99.9 -99.99 -9.99
2018/12/11 18:18 EST    0.21 -99.99 -999 -999 -999 -99.9 -99.9 -999.9 -9.9 -9.999 -99.9 -99.99 -9.99
2018/12/11 18:24 EST    0.25   1.01    2  188    3  39.6  40.1 1017.2 -9.9 -9.999 -99.9 -99.99 -9.99
2018/12/11 18:30 EST    0.29   1.05    3  192    4  39.4  40.1 1017.2 -9.9 -9.999 -99.9 -99.99 -9.99
2018/12/11 18:36 EST    0.34   1.10    4  188    5  39.4  40.1 1017.1 -9.9 -9.999 -99.9 -99.99 -9.99
2018/12/11 18:42 EST    0.40   1.15    4  182    4  39.4  40.1 1017.2 -9.9 -9.999 -99.9 -99.99 -9.99
2018/12/11 18:48 EST    0.46   1.20    3  181    4  39.2  40.1 1017.2 -9.9 -9.999 -99.9 -99.99 -9.99
2018/12/11 18:54 EST    0.52   1.27    3  181    4  39.0  40.1 1017.2 -9.9 -9.999 -99.9 -99.99 -9.99
2018/12/11 19:00 EST    0.59   1.34    3  174    4  39.0  40.1 1017.2 -9.9 -9.999 -99.9 -99.99 -9.99
2018/12/11 19:06 EST    0.66   1.41    4  163    5  39.0  40.1 1017.1 -9.9 -9.999 -99.9 -99.99 -9.99
2018/12/11 19:12 EST    0.74   1.49    4  171    5  38.8  40.1 1017.1 -9.9 -9.999 -99.9 -99.99 -9.99
2018/12/11 19:18 EST    0.82   1.56    4  169    5  38.7  40.1 1017.1 -9.9 -9.999 -99.9 -99.99 -9.99
2018/12/11 19:24 EST    0.90   1.65    5  171    6  38.7  40.1 1017.1 -9.9 -9.999 -99.9 -99.99 -9.99
2018/12/11 19:30 EST    0.98   1.74    4  177    6  38.5  40.1 1017.2 -9.9 -9.999 -99.9 -99.99 -9.99
2018/12/11 19:36 EST    1.07   1.83    4  180    5  38.5  40.1 1017.2 -9.9 -9.999 -99.9 -99.99 -9.99
2018/12/11 19:42 EST    1.16   1.91    3  167    5  38.5  40.1 1017.2 -9.9 -9.999 -99.9 -99.99 -9.99
2018/12/11 19:48 EST    1.25   2.00    3  158    5  38.5  40.1 1017.3 -9.9 -9.999 -99.9 -99.99 -9.99
2018/12/11 19:54 EST    1.33   2.09    2  162    4  38.3  40.1 1017.2 -9.9 -9.999 -99.9 -99.99 -9.99
2018/12/11 20:00 EST    1.42   2.17    2  162    4  37.9  40.1 1017.2 -9.9 -9.999 -99.9 -99.99 -9.99
2018/12/11 20:06 EST    1.51   2.25    2  179    4  38.1  40.1 1017.3 -9.9 -9.999 -99.9 -99.99 -9.99
2018/12/11 20:12 EST    1.59   2.33    2  202    4  37.8  40.3 1017.3 -9.9 -9.999 -99.9 -99.99 -9.99
2018/12/11 20:18 EST    1.68   2.40    2  201    3  37.6  40.3 1017.3 -9.9 -9.999 -99.9 -99.99 -9.99
2018/12/11 20:24 EST    1.76   2.48    2  210    3  36.9  40.3 1017.4 -9.9 -9.999 -99.9 -99.99 -9.99
2018/12/11 20:30 EST    1.84   2.54    0  220    2  36.1  40.3 1017.5 -9.9 -9.999 -99.9 -99.99 -9.99
2018/12/11 20:36 EST    1.91   2.61    0  236    0  36.1  40.3 1017.5 -9.9 -9.999 -99.9 -99.99 -9.99
2018/12/11 20:42 EST    1.99 -99.99 -999 -999 -999 -99.9 -99.9 -999.9 -9.9 -9.999 -99.9 -99.99 -9.99
2018/12/11 20:48 EST    2.06   2.74    2  304    4  35.8  40.3 1017.6 -9.9 -9.999 -99.9 -99.99 -9.99
2018/12/11 20:54 EST    2.12   2.79    2  303    3  35.6  40.3 1017.7 -9.9 -9.999 -99.9 -99.99 -9.99
2018/12/11 21:00 EST    2.18   2.85    2  261    3  36.0  40.3 1017.7 -9.9 -9.999 -99.9 -99.99 -9.99
2018/12/11 21:06 EST    2.24   2.90    1  250    3  36.0  40.3 1017.7 -9.9 -9.999 -99.9 -99.99 -9.99
2018/12/11 21:12 EST    2.29   2.95    1  289    3  35.8  40.3 1017.7 -9.9 -9.999 -99.9 -99.99 -9.99
2018/12/11 21:18 EST    2.34   3.00    1  303    2  35.8  40.3 1017.7 -9.9 -9.999 -99.9 -99.99 -9.99
2018/12/11 21:24 EST    2.39   3.04    1  249    2  36.0  40.3 1017.8 -9.9 -9.999 -99.9 -99.99 -9.99
2018/12/11 21:30 EST    2.43   3.09    1  258    2  35.8  40.3 1017.9 -9.9 -9.999 -99.9 -99.99 -9.99
2018/12/11 21:36 EST    2.47   3.13    1  218    1  35.1  40.3 1017.9 -9.9 -9.999 -99.9 -99.99 -9.99
2018/12/11 21:42 EST    2.51   3.17    2  260    3  35.2  40.3 1018.0 -9.9 -9.999 -99.9 -99.99 -9.99
2018/12/11 21:48 EST    2.54   3.20    1  352    3  35.4  40.3 1018.0 -9.9 -9.999 -99.9 -99.99 -9.99
2018/12/11 21:54 EST    2.57   3.24    0  296    2  35.4  40.3 1018.0 -9.9 -9.999 -99.9 -99.99 -9.99
2018/12/11 22:00 EST    2.59   3.27    1  277    2  35.6  40.3 1018.0 -9.9 -9.999 -99.9 -99.99 -9.99
2018/12/11 22:06 EST    2.61   3.29    2  302    4  35.6  40.3 1018.1 -9.9 -9.999 -99.9 -99.99 -9.99
2018/12/11 22:12 EST    2.63   3.31    2  327    3  35.6  40.3 1018.1 -9.9 -9.999 -99.9 -99.99 -9.99
2018/12/11 22:18 EST    2.65   3.33    1  338    3  35.8  40.3 1018.1 -9.9 -9.999 -99.9 -99.99 -9.99
2018/12/11 22:24 EST    2.66   3.35    1  338    2  35.8  40.3 1018.1 -9.9 -9.999 -99.9 -99.99 -9.99
2018/12/11 22:30 EST    2.67   3.37    1  332    3  36.0  40.3 1018.2 -9.9 -9.999 -99.9 -99.99 -9.99
2018/12/11 22:36 EST    2.68   3.38    2  322    3  36.3  40.3 1018.2 -9.9 -9.999 -99.9 -99.99 -9.99
2018/12/11 22:42 EST    2.68   3.39    1  336    3  36.7  40.3 1018.2 -9.9 -9.999 -99.9 -99.99 -9.99
2018/12/11 22:48 EST    2.68   3.40    1  345    3  36.9  40.3 1018.2 -9.9 -9.999 -99.9 -99.99 -9.99
2018/12/11 22:54 EST    2.68 -99.99 -999 -999 -999 -99.9 -99.9 -999.9 -9.9 -9.999 -99.9 -99.99 -9.99
2018/12/11 23:00 EST    2.68   3.40    0  327    4  37.2  40.3 1018.2 -9.9 -9.999 -99.9 -99.99 -9.99
2018/12/11 23:06 EST    2.67   3.39    1  316    1  37.0  40.3 1018.3 -9.9 -9.999 -99.9 -99.99 -9.99
2018/12/11 23:12 EST    2.66   3.39    0  287    1  37.0  40.3 1018.3 -9.9 -9.999 -99.9 -99.99 -9.99
2018/12/11 23:18 EST    2.64   3.38    0  279    0  36.5  40.3 1018.4 -9.9 -9.999 -99.9 -99.99 -9.99
2018/12/11 23:24 EST    2.63   3.38    0  308    0  36.1  40.3 1018.4 -9.9 -9.999 -99.9 -99.99 -9.99
2018/12/11 23:30 EST    2.61   3.36    1   19    1  36.3  40.3 1018.4 -9.9 -9.999 -99.9 -99.99 -9.99
2018/12/11 23:36 EST    2.58   3.34    2  339    2  36.5  40.3 1018.4 -9.9 -9.999 -99.9 -99.99 -9.99
2018/12/11 23:42 EST    2.56   3.32    1  320    3  36.9  40.3 1018.5 -9.9 -9.999 -99.9 -99.99 -9.99
2018/12/11 23:48 EST    2.53   3.29    0  354    2  37.2  40.3 1018.5 -9.9 -9.999 -99.9 -99.99 -9.99
2018/12/11 23:54 EST    2.49   3.27    0  353    0  37.0  40.3 1018.6 -9.9 -9.999 -99.9 -99.99 -9.99
2018/12/12 00:00 EST    2.46   3.24    0  354    1  36.7  40.3 1018.6 -9.9 -9.999 -99.9 -99.99 -9.99
2018/12/12 00:06 EST    2.42   3.21    1  121    1  36.5  40.3 1018.6 -9.9 -9.999 -99.9 -99.99 -9.99
2018/12/12 00:12 EST    2.38   3.17    1  155    1  37.2  40.3 1018.6 -9.9 -9.999 -99.9 -99.99 -9.99
2018/12/12 00:18 EST    2.34   3.14    1  128    1  37.4  40.3 1018.6 -9.9 -9.999 -99.9 -99.99 -9.99
2018/12/12 00:24 EST    2.29   3.10    1  158    1  37.6  40.3 1018.5 -9.9 -9.999 -99.9 -99.99 -9.99
2018/12/12 00:30 EST    2.24   3.06    2  163    2  36.9  40.3 1018.5 -9.9 -9.999 -99.9 -99.99 -9.99
2018/12/12 00:36 EST    2.19   3.02    2  178    2  36.3  40.3 1018.6 -9.9 -9.999 -99.9 -99.99 -9.99
2018/12/12 00:42 EST    2.14   2.98    2  174    2  36.1  40.3 1018.6 -9.9 -9.999 -99.9 -99.99 -9.99
2018/12/12 00:48 EST    2.09   2.95    2  165    3  36.1  40.3 1018.5 -9.9 -9.999 -99.9 -99.99 -9.99
2018/12/12 00:54 EST    2.04   2.90    1  161    2  36.1  40.3 1018.5 -9.9 -9.999 -99.9 -99.99 -9.99
2018/12/12 01:00 EST    1.98   2.84    1  180    1  36.1  40.3 1018.4 -9.9 -9.999 -99.9 -99.99 -9.99
2018/12/12 01:06 EST    1.92   2.80    1  161    1  36.0  40.3 1018.4 -9.9 -9.999 -99.9 -99.99 -9.99
2018/12/12 01:12 EST    1.87   2.75    1  178    2  36.1  40.3 1018.4 -9.9 -9.999 -99.9 -99.99 -9.99
2018/12/12 01:18 EST    1.81   2.70    0  183    1  36.1  40.3 1018.5 -9.9 -9.999 -99.9 -99.99 -9.99
2018/12/12 01:24 EST    1.75   2.65    1  188    3  36.1  40.3 1018.5 -9.9 -9.999 -99.9 -99.99 -9.99
2018/12/12 01:30 EST    1.70   2.60    1  158    2  36.0  40.3 1018.6 -9.9 -9.999 -99.9 -99.99 -9.99
2018/12/12 01:36 EST    1.64   2.54    1  184    1  35.8  40.3 1018.7 -9.9 -9.999 -99.9 -99.99 -9.99
2018/12/12 01:42 EST    1.58   2.50    1  233    2  35.6  40.3 1018.7 -9.9 -9.999 -99.9 -99.99 -9.99
2018/12/12 01:48 EST    1.52   2.45    1  234    2  35.2  40.3 1018.8 -9.9 -9.999 -99.9 -99.99 -9.99
2018/12/12 01:54 EST    1.47   2.39    0  205    2  34.5  40.3 1018.9 -9.9 -9.999 -99.9 -99.99 -9.99
2018/12/12 02:00 EST    1.41   2.34    1  183    2  34.3  40.3 1019.0 -9.9 -9.999 -99.9 -99.99 -9.99
2018/12/12 02:06 EST    1.35   2.29    1  185    2  34.5  40.3 1019.0 -9.9 -9.999 -99.9 -99.99 -9.99
2018/12/12 02:12 EST    1.30   2.24    1  130    1  34.3  40.3 1019.1 -9.9 -9.999 -99.9 -99.99 -9.99
2018/12/12 02:18 EST    1.24   2.18    3  133    3  34.7  40.3 1019.2 -9.9 -9.999 -99.9 -99.99 -9.99
2018/12/12 02:24 EST    1.18   2.13    2  124    3  34.9  40.3 1019.3 -9.9 -9.999 -99.9 -99.99 -9.99
2018/12/12 02:30 EST    1.13   2.08    2  126    3  35.1  40.3 1019.3 -9.9 -9.999 -99.9 -99.99 -9.99
2018/12/12 02:36 EST    1.08   2.03    1  136    3  35.1  40.3 1019.3 -9.9 -9.999 -99.9 -99.99 -9.99
2018/12/12 02:42 EST    1.02   1.98    1  178    2  35.1  40.3 1019.3 -9.9 -9.999 -99.9 -99.99 -9.99
2018/12/12 02:48 EST    0.97   1.93    1  225    1  34.7  40.3 1019.4 -9.9 -9.999 -99.9 -99.99 -9.99
2018/12/12 02:54 EST    0.92   1.89    1  235    2  33.6  40.3 1019.3 -9.9 -9.999 -99.9 -99.99 -9.99
2018/12/12 03:00 EST    0.87   1.85    0  150    1  33.4  40.3 1019.3 -9.9 -9.999 -99.9 -99.99 -9.99
2018/12/12 03:06 EST    0.82   1.80    0  180    1  33.3  40.3 1019.5 -9.9 -9.999 -99.9 -99.99 -9.99
2018/12/12 03:12 EST    0.77   1.76    0  230    1  33.1  40.3 1019.5 -9.9 -9.999 -99.9 -99.99 -9.99
2018/12/12 03:18 EST    0.72   1.71    0  237    1  33.1  40.3 1019.5 -9.9 -9.999 -99.9 -99.99 -9.99
2018/12/12 03:24 EST    0.68   1.67    0  237    0  32.9  40.3 1019.6 -9.9 -9.999 -99.9 -99.99 -9.99
2018/12/12 03:30 EST    0.63   1.63    0  237    0  33.1  40.3 1019.6 -9.9 -9.999 -99.9 -99.99 -9.99
2018/12/12 03:36 EST    0.59   1.59    0  237    0  33.1  40.3 1019.6 -9.9 -9.999 -99.9 -99.99 -9.99
2018/12/12 03:42 EST    0.55 -99.99 -999 -999 -999 -99.9 -99.9 -999.9 -9.9 -9.999 -99.9 -99.99 -9.99
2018/12/12 03:48 EST    0.51   1.51    1  187    1  33.4  40.3 1019.8 -9.9 -9.999 -99.9 -99.99 -9.99
2018/12/12 03:54 EST    0.47 -99.99 -999 -999 -999 -99.9 -99.9 -999.9 -9.9 -9.999 -99.9 -99.99 -9.99
2018/12/12 04:00 EST    0.44 -99.99 -999 -999 -999 -99.9 -99.9 -999.9 -9.9 -9.999 -99.9 -99.99 -9.99
2018/12/12 04:06 EST    0.40   1.41    1  251    2  31.8  40.3 1020.1 -9.9 -9.999 -99.9 -99.99 -9.99
2018/12/12 04:12 EST    0.37   1.38    0  230    2  31.6  40.3 1020.2 -9.9 -9.999 -99.9 -99.99 -9.99
2018/12/12 04:18 EST    0.34   1.34    1  117    1  32.4  40.3 1020.3 -9.9 -9.999 -99.9 -99.99 -9.99
2018/12/12 04:24 EST    0.31   1.31    1  142    2  33.3  40.3 1020.4 -9.9 -9.999 -99.9 -99.99 -9.99
2018/12/12 04:30 EST    0.28   1.28    2  147    2  33.8  40.3 1020.3 -9.9 -9.999 -99.9 -99.99 -9.99
2018/12/12 04:36 EST    0.26   1.25    1  187    2  34.2  40.3 1020.3 -9.9 -9.999 -99.9 -99.99 -9.99
2018/12/12 04:42 EST    0.23   1.22    1  139    2  33.8  40.3 1020.5 -9.9 -9.999 -99.9 -99.99 -9.99
2018/12/12 04:48 EST    0.21   1.20    3  120    4  34.0  40.3 1020.6 -9.9 -9.999 -99.9 -99.99 -9.99
2018/12/12 04:54 EST    0.18   1.17    2   99    4  34.7  40.3 1020.7 -9.9 -9.999 -99.9 -99.99 -9.99
2018/12/12 05:00 EST    0.16   1.14    2  131    4  35.2  40.3 1020.8 -9.9 -9.999 -99.9 -99.99 -9.99
2018/12/12 05:06 EST    0.14   1.11    1  171    3  35.6  40.3 1020.8 -9.9 -9.999 -99.9 -99.99 -9.99
2018/12/12 05:12 EST    0.13   1.09    1  227    2  35.6  40.3 1020.9 -9.9 -9.999 -99.9 -99.99 -9.99
2018/12/12 05:18 EST    0.11   1.08    1  256    3  34.7  40.3 1020.9 -9.9 -9.999 -99.9 -99.99 -9.99
2018/12/12 05:24 EST    0.09   1.05    0  274    2  34.7  40.3 1021.0 -9.9 -9.999 -99.9 -99.99 -9.99
2018/12/12 05:30 EST    0.08   1.03    1  302    2  35.1  40.3 1021.1 -9.9 -9.999 -99.9 -99.99 -9.99
2018/12/12 05:36 EST    0.07   1.02    0  291    2  34.9  40.3 1021.2 -9.9 -9.999 -99.9 -99.99 -9.99
2018/12/12 05:42 EST    0.06   1.01    0  310    1  34.9  40.3 1021.3 -9.9 -9.999 -99.9 -99.99 -9.99
2018/12/12 05:48 EST    0.05   1.00    2  122    2  35.1  40.3 1021.4 -9.9 -9.999 -99.9 -99.99 -9.99
2018/12/12 05:54 EST    0.05   0.98    1  166    2  35.4  40.3 1021.5 -9.9 -9.999 -99.9 -99.99 -9.99
2018/12/12 06:00 EST    0.04   0.96    2  173    3  35.6  40.3 1021.4 -9.9 -9.999 -99.9 -99.99 -9.99
2018/12/12 06:06 EST    0.04   0.96    2  176    4  35.6  40.3 1021.6 -9.9 -9.999 -99.9 -99.99 -9.99
2018/12/12 06:12 EST    0.05   0.95    3  164    3  35.6  40.3 1021.6 -9.9 -9.999 -99.9 -99.99 -9.99
2018/12/12 06:18 EST    0.05   0.95    2  126    3  35.6  40.3 1021.8 -9.9 -9.999 -99.9 -99.99 -9.99
2018/12/12 06:24 EST    0.07   0.94    1  173    2  35.8  40.3 1021.8 -9.9 -9.999 -99.9 -99.99 -9.99
2018/12/12 06:30 EST    0.08   0.94    1  238    2  35.6  40.3 1021.8 -9.9 -9.999 -99.9 -99.99 -9.99
2018/12/12 06:36 EST    0.10   0.95    0  278    2  35.1  40.3 1021.9 -9.9 -9.999 -99.9 -99.99 -9.99
2018/12/12 06:42 EST    0.12   0.96    0  271    0  35.1  40.3 1021.9 -9.9 -9.999 -99.9 -99.99 -9.99
2018/12/12 06:48 EST    0.15   0.98    1  181    1  35.4  40.3 1022.0 -9.9 -9.999 -99.9 -99.99 -9.99
2018/12/12 06:54 EST    0.18   1.01    3  190    5  35.1  40.3 1022.0 -9.9 -9.999 -99.9 -99.99 -9.99
2018/12/12 07:00 EST    0.22   1.04    2  182    3  35.1  40.3 1022.2 -9.9 -9.999 -99.9 -99.99 -9.99
2018/12/12 07:06 EST    0.26   1.06    0  235    2  35.1  40.3 1022.2 -9.9 -9.999 -99.9 -99.99 -9.99
2018/12/12 07:12 EST    0.31   1.10    1  271    1  34.7  40.3 1022.1 -9.9 -9.999 -99.9 -99.99 -9.99
2018/12/12 07:18 EST    0.36   1.14    0   91    1  35.1  40.1 1022.3 -9.9 -9.999 -99.9 -99.99 -9.99
2018/12/12 07:24 EST    0.41   1.20    1  140    2  35.1  40.1 1022.5 -9.9 -9.999 -99.9 -99.99 -9.99
2018/12/12 07:30 EST    0.47   1.26    1  226    2  35.2  40.1 1022.3 -9.9 -9.999 -99.9 -99.99 -9.99
2018/12/12 07:36 EST    0.54   1.32    0  237    2  34.0  40.1 1022.4 -9.9 -9.999 -99.9 -99.99 -9.99
2018/12/12 07:42 EST    0.60   1.40    2  148    2  34.5  40.1 1022.5 -9.9 -9.999 -99.9 -99.99 -9.99
2018/12/12 07:48 EST    0.67   1.47    1  170    2  34.9  40.1 1022.5 -9.9 -9.999 -99.9 -99.99 -9.99
2018/12/12 07:54 EST    0.75   1.55    0  133    1  34.7  40.1 1022.6 -9.9 -9.999 -99.9 -99.99 -9.99
2018/12/12 08:00 EST    0.82   1.62    0  146    1  35.2  40.1 1022.7 -9.9 -9.999 -99.9 -99.99 -9.99
2018/12/12 08:06 EST    0.90   1.71    1  155    1  35.6  40.1 1022.8 -9.9 -9.999 -99.9 -99.99 -9.99
2018/12/12 08:12 EST    0.98   1.80    0  176    2  36.1  40.1 1022.9 -9.9 -9.999 -99.9 -99.99 -9.99
2018/12/12 08:18 EST    1.06   1.89    2  185    2  36.1  40.1 1023.1 -9.9 -9.999 -99.9 -99.99 -9.99
2018/12/12 08:24 EST    1.13   1.98    3  178    3  36.0  40.1 1023.2 -9.9 -9.999 -99.9 -99.99 -9.99
2018/12/12 08:30 EST    1.21   2.07    2  195    3  36.3  40.1 1023.3 -9.9 -9.999 -99.9 -99.99 -9.99
2018/12/12 08:36 EST    1.29   2.16    4  167    4  36.3  40.1 1023.5 -9.9 -9.999 -99.9 -99.99 -9.99
2018/12/12 08:42 EST    1.37   2.24    2  188    4  36.9  40.1 1023.6 -9.9 -9.999 -99.9 -99.99 -9.99
2018/12/12 08:48 EST    1.44   2.32    3  182    3  37.0  40.1 1023.7 -9.9 -9.999 -99.9 -99.99 -9.99
2018/12/12 08:54 EST    1.52   2.40    3  184    4  37.0  40.1 1023.8 -9.9 -9.999 -99.9 -99.99 -9.99
2018/12/12 09:00 EST    1.59   2.48    3  173    4  37.0  40.1 1023.7 -9.9 -9.999 -99.9 -99.99 -9.99
2018/12/12 09:06 EST    1.66   2.55    3  163    4  37.4  40.1 1023.8 -9.9 -9.999 -99.9 -99.99 -9.99
2018/12/12 09:12 EST    1.72   2.63    3  164    4  37.4  40.1 1023.7 -9.9 -9.999 -99.9 -99.99 -9.99
2018/12/12 09:18 EST    1.78   2.69    3  159    4  37.4  40.1 1023.7 -9.9 -9.999 -99.9 -99.99 -9.99
2018/12/12 09:24 EST    1.84   2.75    2  143    4  37.8  40.1 1023.7 -9.9 -9.999 -99.9 -99.99 -9.99
2018/12/12 09:30 EST    1.90   2.80    2  184    2  38.3  40.1 1023.8 -9.9 -9.999 -99.9 -99.99 -9.99
2018/12/12 09:36 EST    1.95   2.85    2  173    3  38.3  40.1 1023.8 -9.9 -9.999 -99.9 -99.99 -9.99
2018/12/12 09:42 EST    2.00   2.90    2  161    3  38.3  40.1 1023.8 -9.9 -9.999 -99.9 -99.99 -9.99
2018/12/12 09:48 EST    2.05   2.95    4  170    4  38.1  40.1 1023.8 -9.9 -9.999 -99.9 -99.99 -9.99
2018/12/12 09:54 EST    2.09   2.99    2  176    4  38.8  40.1 1023.7 -9.9 -9.999 -99.9 -99.99 -9.99
2018/12/12 10:00 EST    2.13   3.02    3  169    4  39.2  40.1 1023.8 -9.9 -9.999 -99.9 -99.99 -9.99
2018/12/12 10:06 EST    2.17   3.05    3  172    4  39.6  40.1 1023.8 -9.9 -9.999 -99.9 -99.99 -9.99
2018/12/12 10:12 EST    2.20   3.08    2  156    3  39.7  40.1 1023.7 -9.9 -9.999 -99.9 -99.99 -9.99
2018/12/12 10:18 EST    2.23   3.10    2  201    3  40.5  40.1 1023.8 -9.9 -9.999 -99.9 -99.99 -9.99
2018/12/12 10:24 EST    2.26   3.12    1  282    3  41.2  40.1 1023.7 -9.9 -9.999 -99.9 -99.99 -9.99
2018/12/12 10:30 EST    2.28   3.13    1  155    3  42.1  40.1 1023.8 -9.9 -9.999 -99.9 -99.99 -9.99
2018/12/12 10:36 EST    2.31   3.14    4  260    5  42.3  40.1 1023.7 -9.9 -9.999 -99.9 -99.99 -9.99
2018/12/12 10:42 EST    2.33   3.15    4  259    6  42.6  40.1 1023.7 -9.9 -9.999 -99.9 -99.99 -9.99
2018/12/12 10:48 EST    2.34   3.15    5  275    7  42.8  40.1 1023.6 -9.9 -9.999 -99.9 -99.99 -9.99
2018/12/12 10:54 EST    2.36   3.15    5  277    6  42.6  40.1 1023.6 -9.9 -9.999 -99.9 -99.99 -9.99
2018/12/12 11:00 EST    2.37   3.15    6  278    7  42.8  40.1 1023.5 -9.9 -9.999 -99.9 -99.99 -9.99
2018/12/12 11:06 EST    2.38   3.15    4  305    8  43.2  40.1 1023.5 -9.9 -9.999 -99.9 -99.99 -9.99
2018/12/12 11:12 EST    2.39   3.15    2  305    4  44.1  40.1 1023.3 -9.9 -9.999 -99.9 -99.99 -9.99
2018/12/12 11:18 EST    2.39   3.13    3  301    4  44.2  40.1 1023.1 -9.9 -9.999 -99.9 -99.99 -9.99
2018/12/12 11:24 EST    2.39 -99.99 -999 -999 -999 -99.9 -99.9 -999.9 -9.9 -9.999 -99.9 -99.99 -9.99
2018/12/12 11:30 EST    2.39   3.11    3  291    4  44.8  40.1 1023.0 -9.9 -9.999 -99.9 -99.99 -9.99
2018/12/12 11:36 EST    2.39   3.09    3  329    6  44.8  40.1 1022.9 -9.9 -9.999 -99.9 -99.99 -9.99
2018/12/12 11:42 EST    2.38   3.07    3  327    5  44.4  40.1 1022.8 -9.9 -9.999 -99.9 -99.99 -9.99
2018/12/12 11:48 EST    2.37   3.04    4  324    6  44.8  40.1 1022.7 -9.9 -9.999 -99.9 -99.99 -9.99
2018/12/12 11:54 EST    2.35   3.02    3  330    5  44.6  40.1 1022.6 -9.9 -9.999 -99.9 -99.99 -9.99
2018/12/12 12:00 EST    2.33   2.98    3  302    5  44.8  40.1 1022.7 -9.9 -9.999 -99.9 -99.99 -9.99
2018/12/12 12:06 EST    2.31   2.95    2  347    5  45.0  40.1 1022.6 -9.9 -9.999 -99.9 -99.99 -9.99
2018/12/12 12:12 EST    2.29   2.92    1  135    3  45.1  40.1 1022.4 -9.9 -9.999 -99.9 -99.99 -9.99
2018/12/12 12:18 EST    2.26   2.87    0  241    1  45.9  40.1 1022.2 -9.9 -9.999 -99.9 -99.99 -9.99
2018/12/12 12:24 EST    2.23   2.83    1  180    2  45.0  40.1 1022.2 -9.9 -9.999 -99.9 -99.99 -9.99
2018/12/12 12:30 EST    2.20   2.79    2  227    3  44.2  40.1 1022.1 -9.9 -9.999 -99.9 -99.99 -9.99
2018/12/12 12:36 EST    2.16   2.75    3  169    3  44.4  40.1 1022.0 -9.9 -9.999 -99.9 -99.99 -9.99
2018/12/12 12:42 EST    2.13   2.72    4  148    4  43.3  40.1 1021.8 -9.9 -9.999 -99.9 -99.99 -9.99
2018/12/12 12:48 EST    2.08   2.67    2  178    4  43.3  40.1 1021.6 -9.9 -9.999 -99.9 -99.99 -9.99
2018/12/12 12:54 EST    2.04   2.61    3  204    4  43.7  40.1 1021.5 -9.9 -9.999 -99.9 -99.99 -9.99
2018/12/12 13:00 EST    2.00   2.55    4  202    4  44.2  40.1 1021.4 -9.9 -9.999 -99.9 -99.99 -9.99
2018/12/12 13:06 EST    1.95   2.51    1  213    4  44.4  40.1 1021.4 -9.9 -9.999 -99.9 -99.99 -9.99
2018/12/12 13:12 EST    1.90   2.46    2  147    3  44.1  40.1 1021.4 -9.9 -9.999 -99.9 -99.99 -9.99
2018/12/12 13:18 EST    1.85   2.41    2  173    4  43.9  40.1 1021.1 -9.9 -9.999 -99.9 -99.99 -9.99
2018/12/12 13:24 EST    1.79   2.36    1  197    3  44.1  40.1 1021.1 -9.9 -9.999 -99.9 -99.99 -9.99
2018/12/12 13:30 EST    1.74   2.30    2  153    2  44.4  40.1 1021.0 -9.9 -9.999 -99.9 -99.99 -9.99
2018/12/12 13:36 EST    1.69   2.25    2  209    3  44.4  40.1 1020.9 -9.9 -9.999 -99.9 -99.99 -9.99
2018/12/12 13:42 EST    1.63   2.19    3  199    4  44.6  40.1 1020.9 -9.9 -9.999 -99.9 -99.99 -9.99
2018/12/12 13:48 EST    1.57   2.14    1  201    4  44.8  40.1 1020.9 -9.9 -9.999 -99.9 -99.99 -9.99
2018/12/12 13:54 EST    1.52   2.10    2  191    3  44.4  40.1 1021.0 -9.9 -9.999 -99.9 -99.99 -9.99
2018/12/12 14:00 EST    1.46   2.05    3  164    4  44.1  40.1 1021.0 -9.9 -9.999 -99.9 -99.99 -9.99
2018/12/12 14:06 EST    1.40   2.00    4  184    6  43.3  40.1 1020.9 -9.9 -9.999 -99.9 -99.99 -9.99
2018/12/12 14:12 EST    1.34   1.95    4  169    5  43.5  40.1 1020.9 -9.9 -9.999 -99.9 -99.99 -9.99
2018/12/12 14:18 EST    1.29   1.90    4  184    5  43.5  40.1 1021.0 -9.9 -9.999 -99.9 -99.99 -9.99
2018/12/12 14:24 EST    1.23   1.85    4  182    5  43.9  40.1 1020.9 -9.9 -9.999 -99.9 -99.99 -9.99
2018/12/12 14:30 EST    1.17   1.81    3  159    4  43.7  40.1 1021.0 -9.9 -9.999 -99.9 -99.99 -9.99
2018/12/12 14:36 EST    1.11   1.77    3  174    4  43.9  40.1 1021.0 -9.9 -9.999 -99.9 -99.99 -9.99
2018/12/12 14:42 EST    1.06   1.73    4  184    5  43.5  40.1 1021.0 -9.9 -9.999 -99.9 -99.99 -9.99
2018/12/12 14:48 EST    1.00   1.68    4  180    6  43.3  40.1 1021.0 -9.9 -9.999 -99.9 -99.99 -9.99
2018/12/12 14:54 EST    0.95   1.64    5  182    6  43.3  40.1 1021.0 -9.9 -9.999 -99.9 -99.99 -9.99
2018/12/12 15:00 EST    0.89   1.60    5  192    7  43.9  40.1 1021.2 -9.9 -9.999 -99.9 -99.99 -9.99
2018/12/12 15:06 EST    0.84   1.56    5  200    6  43.7  40.1 1021.3 -9.9 -9.999 -99.9 -99.99 -9.99
2018/12/12 15:12 EST    0.79   1.52    4  187    7  43.5  40.1 1021.2 -9.9 -9.999 -99.9 -99.99 -9.99
2018/12/12 15:18 EST    0.73   1.48    4  178    8  43.7  40.1 1021.3 -9.9 -9.999 -99.9 -99.99 -9.99
2018/12/12 15:24 EST    0.68   1.44    4  187    5  43.5  40.1 1021.4 -9.9 -9.999 -99.9 -99.99 -9.99
2018/12/12 15:30 EST    0.63   1.41    6  181    7  43.7  40.1 1021.5 -9.9 -9.999 -99.9 -99.99 -9.99
2018/12/12 15:36 EST    0.59   1.38    7  191    8  43.5  40.1 1021.7 -9.9 -9.999 -99.9 -99.99 -9.99
2018/12/12 15:42 EST    0.54   1.34    6  199    9  43.3  40.1 1021.8 -9.9 -9.999 -99.9 -99.99 -9.99
2018/12/12 15:48 EST    0.50   1.31    6  188    8  43.3  40.1 1021.9 -9.9 -9.999 -99.9 -99.99 -9.99
2018/12/12 15:54 EST    0.46   1.27    5  191    7  43.3  40.1 1022.1 -9.9 -9.999 -99.9 -99.99 -9.99
2018/12/12 16:00 EST    0.42   1.24    5  185    6  43.2  40.1 1022.1 -9.9 -9.999 -99.9 -99.99 -9.99
2018/12/12 16:06 EST    0.38   1.20    6  189    8  43.5  40.3 1022.2 -9.9 -9.999 -99.9 -99.99 -9.99
2018/12/12 16:12 EST    0.34   1.17    5  190    8  43.2  40.3 1022.3 -9.9 -9.999 -99.9 -99.99 -9.99
2018/12/12 16:18 EST    0.31   1.14    4  193    6  43.3  40.3 1022.3 -9.9 -9.999 -99.9 -99.99 -9.99
2018/12/12 16:24 EST    0.28   1.11    5  185    6  43.5  40.3 1022.3 -9.9 -9.999 -99.9 -99.99 -9.99
2018/12/12 16:30 EST    0.25   1.08    3  189    6  43.3  40.3 1022.2 -9.9 -9.999 -99.9 -99.99 -9.99
2018/12/12 16:36 EST    0.22   1.06    4  172    5  43.3  40.3 1022.1 -9.9 -9.999 -99.9 -99.99 -9.99
2018/12/12 16:42 EST    0.20   1.03    4  185    6  43.3  40.3 1022.1 -9.9 -9.999 -99.9 -99.99 -9.99
2018/12/12 16:48 EST    0.18   1.01    4  181    5  43.0  40.3 1022.0 -9.9 -9.999 -99.9 -99.99 -9.99
2018/12/12 16:54 EST    0.16   0.98    5  169    5  42.1  40.3 1022.0 -9.9 -9.999 -99.9 -99.99 -9.99
2018/12/12 17:00 EST    0.14   0.96    4  178    6  41.7  40.3 1022.1 -9.9 -9.999 -99.9 -99.99 -9.99
2018/12/12 17:06 EST    0.12   0.94    6  183    6  42.4  40.3 1022.1 -9.9 -9.999 -99.9 -99.99 -9.99
2018/12/12 17:12 EST    0.11   0.92    6  172    7  43.0  40.3 1022.0 -9.9 -9.999 -99.9 -99.99 -9.99
2018/12/12 17:18 EST    0.10 -99.99 -999 -999 -999 -99.9 -99.9 -999.9 -9.9 -9.999 -99.9 -99.99 -9.99
2018/12/12 17:24 EST    0.09   0.88    3  165    6  42.4  40.3 1021.9 -9.9 -9.999 -99.9 -99.99 -9.99
2018/12/12 17:30 EST    0.08   0.86    4  170    6  43.0  40.3 1022.0 -9.9 -9.999 -99.9 -99.99 -9.99
2018/12/12 17:36 EST    0.08   0.84    3  187    4  42.4  40.3 1022.1 -9.9 -9.999 -99.9 -99.99 -9.99
2018/12/12 17:42 EST    0.07   0.83    3  190    3  42.4  40.3 1022.2 -9.9 -9.999 -99.9 -99.99 -9.99
2018/12/12 17:48 EST    0.07   0.81    3  195    4  42.3  40.3 1022.3 -9.9 -9.999 -99.9 -99.99 -9.99
2018/12/12 17:54 EST    0.07   0.80    4  200    5  42.1  40.3 1022.6 -9.9 -9.999 -99.9 -99.99 -9.99
2018/12/12 18:00 EST    0.07   0.79    4  196    7  42.3  40.3 1022.7 -9.9 -9.999 -99.9 -99.99 -9.99
2018/12/12 18:06 EST    0.08   0.78    5  191    5  42.1  40.3 1022.8 -9.9 -9.999 -99.9 -99.99 -9.99
2018/12/12 18:12 EST    0.08   0.78    5  178    7  42.1  40.3 1022.9 -9.9 -9.999 -99.9 -99.99 -9.99
2018/12/12 18:18 EST    0.09   0.77    5  164    6  41.4  40.3 1022.8 -9.9 -9.999 -99.9 -99.99 -9.99
2018/12/12 18:24 EST    0.11 -99.99 -999 -999 -999 -99.9 -99.9 -999.9 -9.9 -9.999 -99.9 -99.99 -9.99
2018/12/12 18:30 EST    0.12   0.78    7  161    9  42.4  40.3 1022.6 -9.9 -9.999 -99.9 -99.99 -9.99
2018/12/12 18:36 EST    0.14   0.79    6  164    8  42.6  40.3 1022.5 -9.9 -9.999 -99.9 -99.99 -9.99
2018/12/12 18:42 EST    0.16   0.81    6  156    9  42.6  40.3 1022.3 -9.9 -9.999 -99.9 -99.99 -9.99
2018/12/12 18:48 EST    0.19   0.84    5  154    8  42.4  40.3 1022.4 -9.9 -9.999 -99.9 -99.99 -9.99
2018/12/12 18:54 EST    0.22   0.87    4  139    8  42.3  40.3 1022.2 -9.9 -9.999 -99.9 -99.99 -9.99
2018/12/12 19:00 EST    0.25   0.91    4  146    6  42.1  40.3 1022.1 -9.9 -9.999 -99.9 -99.99 -9.99
2018/12/12 19:06 EST    0.29   0.96    6  141    9  41.9  40.3 1021.9 -9.9 -9.999 -99.9 -99.99 -9.99
2018/12/12 19:12 EST    0.33   1.01    5  132    8  42.1  40.3 1021.9 -9.9 -9.999 -99.9 -99.99 -9.99
2018/12/12 19:18 EST    0.38   1.06    5  138    9  42.1  40.3 1022.0 -9.9 -9.999 -99.9 -99.99 -9.99
2018/12/12 19:24 EST    0.43   1.12    5  134    7  41.7  40.3 1022.1 -9.9 -9.999 -99.9 -99.99 -9.99
2018/12/12 19:30 EST    0.48   1.20    6  149    7  41.7  40.3 1022.2 -9.9 -9.999 -99.9 -99.99 -9.99
2018/12/12 19:36 EST    0.54   1.27    4  149    8  41.5  40.3 1022.4 -9.9 -9.999 -99.9 -99.99 -9.99
2018/12/12 19:42 EST    0.60   1.34    5  172    7  41.5  40.3 1022.5 -9.9 -9.999 -99.9 -99.99 -9.99
2018/12/12 19:48 EST    0.67   1.42    4  163    5  41.2  40.3 1022.5 -9.9 -9.999 -99.9 -99.99 -9.99
2018/12/12 19:54 EST    0.74   1.50    3  153    5  41.0  40.3 1022.6 -9.9 -9.999 -99.9 -99.99 -9.99
2018/12/12 20:00 EST    0.81   1.58    3  138    3  40.8  40.3 1022.5 -9.9 -9.999 -99.9 -99.99 -9.99
2018/12/12 20:06 EST    0.89   1.66    3  151    6  40.8  40.3 1022.7 -9.9 -9.999 -99.9 -99.99 -9.99
2018/12/12 20:12 EST    0.97   1.74    3  149    4  40.6  40.3 1022.7 -9.9 -9.999 -99.9 -99.99 -9.99
2018/12/12 20:18 EST    1.05   1.82    1  226    4  40.1  40.3 1022.9 -9.9 -9.999 -99.9 -99.99 -9.99
2018/12/12 20:24 EST    1.13   1.91    1  149    2  39.4  40.3 1022.8 -9.9 -9.999 -99.9 -99.99 -9.99
2018/12/12 20:30 EST    1.22   1.99    4  121    5  39.9  40.3 1022.6 -9.9 -9.999 -99.9 -99.99 -9.99
2018/12/12 20:36 EST    1.30   2.07    3  132    6  40.6  40.3 1022.6 -9.9 -9.999 -99.9 -99.99 -9.99
2018/12/12 20:42 EST    1.39   2.14    3  144    5  40.5  40.3 1022.7 -9.9 -9.999 -99.9 -99.99 -9.99
2018/12/12 20:48 EST    1.47   2.21    3  147    5  40.3  40.3 1022.8 -9.9 -9.999 -99.9 -99.99 -9.99
2018/12/12 20:54 EST    1.55   2.29    3  149    4  40.1  40.3 1022.9 -9.9 -9.999 -99.9 -99.99 -9.99
2018/12/12 21:00 EST    1.63   2.37    3  146    4  39.9  40.3 1022.8 -9.9 -9.999 -99.9 -99.99 -9.99
2018/12/12 21:06 EST    1.71   2.44    3  141    4  39.9  40.3 1022.8 -9.9 -9.999 -99.9 -99.99 -9.99
2018/12/12 21:12 EST    1.79   2.51    4  126    5  39.7  40.3 1022.7 -9.9 -9.999 -99.9 -99.99 -9.99
2018/12/12 21:18 EST    1.86   2.57    3  126    6  39.7  40.3 1022.7 -9.9 -9.999 -99.9 -99.99 -9.99
2018/12/12 21:24 EST    1.93   2.63    4  128    4  39.7  40.3 1022.7 -9.9 -9.999 -99.9 -99.99 -9.99
2018/12/12 21:30 EST    2.00   2.70    4  131    5  39.6  40.3 1022.4 -9.9 -9.999 -99.9 -99.99 -9.99
2018/12/12 21:36 EST    2.06   2.76    5  135    7  39.4  40.3 1022.5 -9.9 -9.999 -99.9 -99.99 -9.99
2018/12/12 21:42 EST    2.12   2.81    6  140    7  39.4  40.3 1022.4 -9.9 -9.999 -99.9 -99.99 -9.99
2018/12/12 21:48 EST    2.18   2.87    4  163    8  39.2  40.3 1022.6 -9.9 -9.999 -99.9 -99.99 -9.99
2018/12/12 21:54 EST    2.23   2.92    3  183    5  39.0  40.3 1022.7 -9.9 -9.999 -99.9 -99.99 -9.99
2018/12/12 22:00 EST    2.28   2.98    4  169    4  38.8  40.3 1022.7 -9.9 -9.999 -99.9 -99.99 -9.99
2018/12/12 22:06 EST    2.32   3.03    4  166    6  39.0  40.3 1022.7 -9.9 -9.999 -99.9 -99.99 -9.99
2018/12/12 22:12 EST    2.36   3.07    2  174    5  38.8  40.3 1022.8 -9.9 -9.999 -99.9 -99.99 -9.99
2018/12/12 22:18 EST    2.40   3.11    5  175    7  38.8  40.3 1022.8 -9.9 -9.999 -99.9 -99.99 -9.99
2018/12/12 22:24 EST    2.43   3.16    5  163    7  38.8  40.3 1022.9 -9.9 -9.999 -99.9 -99.99 -9.99
2018/12/12 22:30 EST    2.46   3.19    4  156    5  38.7  40.3 1022.9 -9.9 -9.999 -99.9 -99.99 -9.99
2018/12/12 22:36 EST    2.49   3.21    4  148    7  38.5  40.3 1022.7 -9.9 -9.999 -99.9 -99.99 -9.99
2018/12/12 22:42 EST    2.51   3.24    4  146    5  38.5  40.1 1022.8 -9.9 -9.999 -99.9 -99.99 -9.99
2018/12/12 22:48 EST    2.53   3.27    3  135    5  38.3  40.1 1022.7 -9.9 -9.999 -99.9 -99.99 -9.99
2018/12/12 22:54 EST    2.55   3.29    4  149    5  38.3  40.1 1022.7 -9.9 -9.999 -99.9 -99.99 -9.99
2018/12/12 23:00 EST    2.56   3.32    4  151    5  38.3  40.1 1022.7 -9.9 -9.999 -99.9 -99.99 -9.99
2018/12/12 23:06 EST    2.57   3.34    4  138    5  38.1  40.1 1022.5 -9.9 -9.999 -99.9 -99.99 -9.99
2018/12/12 23:12 EST    2.58   3.36    3  145    5  38.1  40.1 1022.7 -9.9 -9.999 -99.9 -99.99 -9.99
2018/12/12 23:18 EST    2.59   3.38    2  155    4  38.1  40.1 1022.8 -9.9 -9.999 -99.9 -99.99 -9.99
2018/12/12 23:24 EST    2.59   3.39    4  154    5  38.3  40.1 1022.7 -9.9 -9.999 -99.9 -99.99 -9.99
2018/12/12 23:30 EST    2.59   3.40    3  145    4  38.1  40.1 1022.7 -9.9 -9.999 -99.9 -99.99 -9.99
2018/12/12 23:36 EST    2.59   3.41    3  159    5  38.1  40.1 1022.9 -9.9 -9.999 -99.9 -99.99 -9.99
2018/12/12 23:42 EST    2.58   3.41    2  149    3  38.1  40.1 1023.0 -9.9 -9.999 -99.9 -99.99 -9.99
2018/12/12 23:48 EST    2.58   3.42    2  153    3  38.1  40.1 1023.0 -9.9 -9.999 -99.9 -99.99 -9.99
2018/12/12 23:54 EST    2.57   3.43    3  140    4  38.1  40.3 1022.9 -9.9 -9.999 -99.9 -99.99 -9.99
2018/12/13 00:00 EST    2.55   3.42    4  141    5  38.1  40.3 1022.7 -9.9 -9.999 -99.9 -99.99 -9.99
2018/12/13 00:06 EST    2.54   3.42    3  149    5  38.1  40.1 1022.6 -9.9 -9.999 -99.9 -99.99 -9.99
2018/12/13 00:12 EST    2.52   3.41    3  129    5  38.1  40.3 1022.5 -9.9 -9.999 -99.9 -99.99 -9.99
2018/12/13 00:18 EST    2.50   3.40    2  153    5  38.3  40.3 1022.6 -9.9 -9.999 -99.9 -99.99 -9.99
2018/12/13 00:24 EST    2.48   3.38    4  152    5  38.3  40.3 1022.5 -9.9 -9.999 -99.9 -99.99 -9.99
2018/12/13 00:30 EST    2.45   3.36    4  163    5  38.3  40.3 1022.5 -9.9 -9.999 -99.9 -99.99 -9.99
2018/12/13 00:36 EST    2.42   3.34    2  144    4  38.3  40.3 1022.6 -9.9 -9.999 -99.9 -99.99 -9.99
2018/12/13 00:42 EST    2.39   3.31    2  142    3  38.5  40.3 1022.6 -9.9 -9.999 -99.9 -99.99 -9.99
2018/12/13 00:48 EST    2.35   3.29    2  143    5  38.5  40.3 1022.5 -9.9 -9.999 -99.9 -99.99 -9.99
2018/12/13 00:54 EST    2.32   3.26    3  143    4  38.5  40.3 1022.3 -9.9 -9.999 -99.9 -99.99 -9.99
2018/12/13 01:00 EST    2.28   3.21    4  153    5  38.5  40.3 1022.4 -9.9 -9.999 -99.9 -99.99 -9.99
2018/12/13 01:06 EST    2.24   3.17    4  151    5  38.7  40.3 1022.3 -9.9 -9.999 -99.9 -99.99 -9.99
2018/12/13 01:12 EST    2.19   3.14    3  158    5  38.7  40.3 1022.4 -9.9 -9.999 -99.9 -99.99 -9.99
2018/12/13 01:18 EST    2.15   3.09    4  162    4  38.8  40.3 1022.4 -9.9 -9.999 -99.9 -99.99 -9.99
2018/12/13 01:24 EST    2.10   3.05    3  167    5  39.0  40.3 1022.3 -9.9 -9.999 -99.9 -99.99 -9.99
2018/12/13 01:30 EST    2.05   3.00    3  167    4  39.0  40.3 1022.4 -9.9 -9.999 -99.9 -99.99 -9.99
2018/12/13 01:36 EST    2.00   2.95    2  170    3  39.0  40.3 1022.5 -9.9 -9.999 -99.9 -99.99 -9.99
2018/12/13 01:42 EST    1.94   2.91    1  158    2  38.8  40.3 1022.6 -9.9 -9.999 -99.9 -99.99 -9.99
2018/12/13 01:48 EST    1.89   2.85    1  170    1  39.0  40.3 1022.6 -9.9 -9.999 -99.9 -99.99 -9.99
2018/12/13 01:54 EST    1.84   2.79    2  175    3  39.2  40.3 1022.6 -9.9 -9.999 -99.9 -99.99 -9.99
2018/12/13 02:00 EST    1.78   2.74    3  182    6  39.4  40.3 1022.6 -9.9 -9.999 -99.9 -99.99 -9.99
2018/12/13 02:06 EST    1.73   2.69    1  187    3  39.4  40.3 1022.8 -9.9 -9.999 -99.9 -99.99 -9.99
2018/12/13 02:12 EST    1.67   2.63    1  200    2  39.4  40.3 1023.0 -9.9 -9.999 -99.9 -99.99 -9.99
2018/12/13 02:18 EST    1.61   2.57    2  229    3  39.4  40.3 1023.1 -9.9 -9.999 -99.9 -99.99 -9.99
2018/12/13 02:24 EST    1.56   2.52    2  160    3  39.0  40.3 1022.9 -9.9 -9.999 -99.9 -99.99 -9.99
2018/12/13 02:30 EST    1.50   2.47    4  138    5  39.7  40.3 1022.8 -9.9 -9.999 -99.9 -99.99 -9.99
2018/12/13 02:36 EST    1.44   2.41    3  119    5  39.9  40.3 1022.8 -9.9 -9.999 -99.9 -99.99 -9.99
2018/12/13 02:42 EST    1.39   2.35    3  155    4  40.3  40.3 1022.8 -9.9 -9.999 -99.9 -99.99 -9.99
2018/12/13 02:48 EST    1.33   2.30    3  144    4  40.3  40.3 1022.8 -9.9 -9.999 -99.9 -99.99 -9.99
2018/12/13 02:54 EST    1.27   2.25    5  144    5  40.3  40.3 1022.6 -9.9 -9.999 -99.9 -99.99 -9.99
2018/12/13 03:00 EST    1.22   2.19    4  142    6  40.3  40.3 1022.5 -9.9 -9.999 -99.9 -99.99 -9.99
2018/12/13 03:06 EST    1.16   2.14    3  135    6  40.5  40.3 1022.6 -9.9 -9.999 -99.9 -99.99 -9.99
2018/12/13 03:12 EST    1.11   2.09    4  152    5  40.5  40.3 1022.6 -9.9 -9.999 -99.9 -99.99 -9.99
2018/12/13 03:18 EST    1.05   2.05    3  139    5  40.3  40.3 1022.6 -9.9 -9.999 -99.9 -99.99 -9.99
2018/12/13 03:24 EST    1.00   2.00    2  174    4  40.3  40.3 1022.8 -9.9 -9.999 -99.9 -99.99 -9.99
2018/12/13 03:30 EST    0.95   1.95    3  154    4  40.3  40.3 1022.8 -9.9 -9.999 -99.9 -99.99 -9.99
2018/12/13 03:36 EST    0.90   1.91    3  143    4  40.1  40.3 1022.8 -9.9 -9.999 -99.9 -99.99 -9.99
2018/12/13 03:42 EST    0.84   1.87    2  146    3  40.1  40.3 1022.9 -9.9 -9.999 -99.9 -99.99 -9.99
2018/12/13 03:48 EST    0.79   1.82    3  136    3  40.1  40.3 1022.9 -9.9 -9.999 -99.9 -99.99 -9.99
2018/12/13 03:54 EST    0.75   1.77    3  132    4  40.1  40.3 1022.9 -9.9 -9.999 -99.9 -99.99 -9.99
2018/12/13 04:00 EST    0.70   1.73    2  121    4  40.1  40.3 1022.9 -9.9 -9.999 -99.9 -99.99 -9.99
2018/12/13 04:06 EST    0.65   1.69    3  130    4  40.1  40.3 1023.0 -9.9 -9.999 -99.9 -99.99 -9.99
2018/12/13 04:12 EST    0.61   1.65    1  106    4  40.1  40.3 1023.0 -9.9 -9.999 -99.9 -99.99 -9.99
2018/12/13 04:18 EST    0.57   1.61    2   88    2  40.1  40.3 1023.1 -9.9 -9.999 -99.9 -99.99 -9.99
2018/12/13 04:24 EST    0.52   1.57    1  110    3  39.9  40.3 1023.2 -9.9 -9.999 -99.9 -99.99 -9.99
2018/12/13 04:30 EST    0.48   1.53    1   98    2  39.9  40.3 1023.2 -9.9 -9.999 -99.9 -99.99 -9.99
2018/12/13 04:36 EST    0.45   1.50    1   93    2  39.9  40.3 1023.2 -9.9 -9.999 -99.9 -99.99 -9.99
2018/12/13 04:42 EST    0.41   1.46    1  119    1  39.7  40.3 1023.2 -9.9 -9.999 -99.9 -99.99 -9.99
2018/12/13 04:48 EST    0.38   1.43    2  139    4  39.7  40.3 1023.2 -9.9 -9.999 -99.9 -99.99 -9.99
2018/12/13 04:54 EST    0.35   1.39    2  125    3  39.7  40.3 1023.3 -9.9 -9.999 -99.9 -99.99 -9.99
2018/12/13 05:00 EST    0.32   1.36    1   93    3  39.9  40.3 1023.2 -9.9 -9.999 -99.9 -99.99 -9.99
2018/12/13 05:06 EST    0.29   1.32    1  107    2  39.7  40.3 1023.2 -9.9 -9.999 -99.9 -99.99 -9.99
2018/12/13 05:12 EST    0.26   1.29    3   99    3  39.9  40.3 1023.2 -9.9 -9.999 -99.9 -99.99 -9.99
2018/12/13 05:18 EST    0.24   1.27    2  117    3  39.9  40.3 1023.3 -9.9 -9.999 -99.9 -99.99 -9.99
2018/12/13 05:24 EST    0.21   1.24    2  108    4  39.9  40.3 1023.4 -9.9 -9.999 -99.9 -99.99 -9.99
2018/12/13 05:30 EST    0.19   1.21    2  116    3  39.9  40.3 1023.4 -9.9 -9.999 -99.9 -99.99 -9.99
2018/12/13 05:36 EST    0.17   1.18    3  128    3  39.7  40.3 1023.5 -9.9 -9.999 -99.9 -99.99 -9.99
2018/12/13 05:42 EST    0.16   1.16    1  137    4  39.9  40.3 1023.6 -9.9 -9.999 -99.9 -99.99 -9.99
2018/12/13 05:48 EST    0.14   1.13    3  127    4  39.7  40.3 1023.6 -9.9 -9.999 -99.9 -99.99 -9.99
2018/12/13 05:54 EST    0.13   1.11    1  123    3  39.9  40.3 1023.9 -9.9 -9.999 -99.9 -99.99 -9.99
2018/12/13 06:00 EST    0.11   1.09    2  125    4  39.9  40.3 1023.9 -9.9 -9.999 -99.9 -99.99 -9.99
2018/12/13 06:06 EST    0.10   1.06    2  133    3  39.9  40.3 1024.0 -9.9 -9.999 -99.9 -99.99 -9.99
2018/12/13 06:12 EST    0.09   1.04    3  129    4  39.9  40.3 1024.0 -9.9 -9.999 -99.9 -99.99 -9.99
2018/12/13 06:18 EST    0.09   1.02    2  145    3  39.9  40.3 1024.1 -9.9 -9.999 -99.9 -99.99 -9.99
2018/12/13 06:24 EST    0.08   1.01    3  148    5  39.9  40.3 1024.3 -9.9 -9.999 -99.9 -99.99 -9.99
2018/12/13 06:30 EST    0.08   0.99    4  148    4  39.7  40.3 1024.3 -9.9 -9.999 -99.9 -99.99 -9.99
2018/12/13 06:36 EST    0.08   0.98    3  153    5  39.9  40.3 1024.4 -9.9 -9.999 -99.9 -99.99 -9.99
2018/12/13 06:42 EST    0.08   0.97    5  161    7  39.9  40.3 1024.5 -9.9 -9.999 -99.9 -99.99 -9.99
2018/12/13 06:48 EST    0.08   0.96    5  158    7  39.9  40.3 1024.6 -9.9 -9.999 -99.9 -99.99 -9.99
2018/12/13 06:54 EST    0.09   0.95    4  154    5  39.7  40.3 1024.6 -9.9 -9.999 -99.9 -99.99 -9.99
2018/12/13 07:00 EST    0.09   0.94    5  162    6  39.7  40.3 1024.6 -9.9 -9.999 -99.9 -99.99 -9.99
2018/12/13 07:06 EST    0.11   0.94    4  153    7  39.7  40.3 1024.6 -9.9 -9.999 -99.9 -99.99 -9.99
2018/12/13 07:12 EST    0.12   0.94    4  152    5  39.6  40.3 1024.7 -9.9 -9.999 -99.9 -99.99 -9.99
2018/12/13 07:18 EST    0.14   0.94    4  165    5  39.6  40.3 1024.7 -9.9 -9.999 -99.9 -99.99 -9.99
2018/12/13 07:24 EST    0.17   0.95    4  161    4  39.6  40.3 1024.7 -9.9 -9.999 -99.9 -99.99 -9.99
2018/12/13 07:30 EST    0.19   0.96    3  148    5  39.6  40.3 1024.7 -9.9 -9.999 -99.9 -99.99 -9.99
2018/12/13 07:36 EST    0.22   0.99    4  152    5  39.6  40.3 1024.7 -9.9 -9.999 -99.9 -99.99 -9.99
2018/12/13 07:42 EST    0.26   1.02    5  152    6  39.6  40.3 1024.7 -9.9 -9.999 -99.9 -99.99 -9.99
2018/12/13 07:48 EST    0.30   1.05    2  168    6  39.6  40.3 1025.0 -9.9 -9.999 -99.9 -99.99 -9.99
2018/12/13 07:54 EST    0.34   1.08    3  182    4  39.6  40.3 1025.2 -9.9 -9.999 -99.9 -99.99 -9.99
2018/12/13 08:00 EST    0.39   1.14    3  211    4  39.6  40.3 1025.4 -9.9 -9.999 -99.9 -99.99 -9.99
2018/12/13 08:06 EST    0.45   1.20    2  193    4  39.6  40.3 1025.5 -9.9 -9.999 -99.9 -99.99 -9.99
2018/12/13 08:12 EST    0.50   1.25    1  209    3  39.4  40.3 1025.6 -9.9 -9.999 -99.9 -99.99 -9.99
2018/12/13 08:18 EST    0.56 -99.99 -999 -999 -999 -99.9 -99.9 -999.9 -9.9 -9.999 -99.9 -99.99 -9.99
2018/12/13 08:24 EST    0.63 -99.99 -999 -999 -999 -99.9 -99.9 -999.9 -9.9 -9.999 -99.9 -99.99 -9.99
2018/12/13 08:30 EST    0.70 -99.99 -999 -999 -999 -99.9 -99.9 -999.9 -9.9 -9.999 -99.9 -99.99 -9.99
2018/12/13 08:36 EST    0.77 -99.99 -999 -999 -999 -99.9 -99.9 -999.9 -9.9 -9.999 -99.9 -99.99 -9.99
2018/12/13 08:42 EST    0.84   1.62    2  160    2  39.2  40.3 1025.8 -9.9 -9.999 -99.9 -99.99 -9.99
2018/12/13 08:48 EST    0.91   1.71    3  146    3  39.6  40.3 1025.8 -9.9 -9.999 -99.9 -99.99 -9.99
2018/12/13 08:54 EST    0.99   1.79    3  148    4  39.9  40.3 1025.9 -9.9 -9.999 -99.9 -99.99 -9.99
2018/12/13 09:00 EST    1.07   1.88    3  164    4  40.1  40.3 1026.1 -9.9 -9.999 -99.9 -99.99 -9.99
2018/12/13 09:06 EST    1.14   1.97    3  159    4  40.5  40.3 1026.2 -9.9 -9.999 -99.9 -99.99 -9.99
2018/12/13 09:12 EST    1.22   2.06    2  174    4  40.8  40.3 1026.2 -9.9 -9.999 -99.9 -99.99 -9.99
2018/12/13 09:18 EST    1.30   2.15    2  191    4  40.8  40.3 1026.3 -9.9 -9.999 -99.9 -99.99 -9.99
2018/12/13 09:24 EST    1.37   2.23    2  195    3  40.6  40.3 1026.3 -9.9 -9.999 -99.9 -99.99 -9.99
2018/12/13 09:30 EST    1.45   2.32    2  210    3  41.5  40.3 1026.3 -9.9 -9.999 -99.9 -99.99 -9.99
2018/12/13 09:36 EST    1.52   2.40    2  200    2  41.7  40.3 1026.4 -9.9 -9.999 -99.9 -99.99 -9.99
2018/12/13 09:42 EST    1.59   2.47    2  194    2  41.5  40.3 1026.5 -9.9 -9.999 -99.9 -99.99 -9.99
2018/12/13 09:48 EST    1.66   2.54    2  210    2  42.4  40.3 1026.5 -9.9 -9.999 -99.9 -99.99 -9.99
2018/12/13 09:54 EST    1.72   2.62    2  192    4  41.9  40.3 1026.5 -9.9 -9.999 -99.9 -99.99 -9.99
2018/12/13 10:00 EST    1.78   2.68    2  192    3  41.7  40.3 1026.5 -9.9 -9.999 -99.9 -99.99 -9.99
2018/12/13 10:06 EST    1.84   2.75    2  208    3  42.3  40.3 1026.6 -9.9 -9.999 -99.9 -99.99 -9.99
2018/12/13 10:12 EST    1.90   2.81    0  210    2  42.6  40.3 1026.6 -9.9 -9.999 -99.9 -99.99 -9.99
2018/12/13 10:18 EST    1.95   2.87    3  206    3  42.6  40.3 1026.5 -9.9 -9.999 -99.9 -99.99 -9.99
2018/12/13 10:24 EST    2.00   2.92    2  242    3  43.0  40.3 1026.7 -9.9 -9.999 -99.9 -99.99 -9.99
2018/12/13 10:30 EST    2.04   2.97    3  239    4  43.2  40.3 1026.8 -9.9 -9.999 -99.9 -99.99 -9.99
2018/12/13 10:36 EST    2.08   3.02    3  249    4  43.3  40.3 1026.9 -9.9 -9.999 -99.9 -99.99 -9.99
2018/12/13 10:42 EST    2.12   3.07    3  243    4  43.5  40.3 1026.9 -9.9 -9.999 -99.9 -99.99 -9.99
2018/12/13 10:48 EST    2.16   3.11    1  207    3  44.1  40.3 1026.8 -9.9 -9.999 -99.9 -99.99 -9.99
2018/12/13 10:54 EST    2.19   3.14    0  204    1  44.8  40.3 1026.7 -9.9 -9.999 -99.9 -99.99 -9.99
2018/12/13 11:00 EST    2.22   3.17    1  240    2  46.0  40.3 1026.6 -9.9 -9.999 -99.9 -99.99 -9.99
2018/12/13 11:06 EST    2.24   3.20    2  231    2  45.3  40.3 1026.6 -9.9 -9.999 -99.9 -99.99 -9.99
2018/12/13 11:12 EST    2.26   3.24    3  195    3  45.3  40.3 1026.6 -9.9 -9.999 -99.9 -99.99 -9.99
2018/12/13 11:18 EST    2.29   3.27    3  196    4  45.0  40.3 1026.6 -9.9 -9.999 -99.9 -99.99 -9.99
2018/12/13 11:24 EST    2.30   3.29    4  216    5  45.3  40.3 1026.5 -9.9 -9.999 -99.9 -99.99 -9.99
2018/12/13 11:30 EST    2.32   3.31    4  227    8  45.3  40.3 1026.5 -9.9 -9.999 -99.9 -99.99 -9.99
2018/12/13 11:36 EST    2.33   3.33    3  236    4  45.7  40.3 1026.5 -9.9 -9.999 -99.9 -99.99 -9.99
2018/12/13 11:42 EST    2.34   3.35    3  225    4  46.0  40.3 1026.3 -9.9 -9.999 -99.9 -99.99 -9.99
2018/12/13 11:48 EST    2.35   3.36    1  219    3  46.6  40.3 1026.3 -9.9 -9.999 -99.9 -99.99 -9.99
2018/12/13 11:54 EST    2.36   3.36    1  181    3  47.5  40.3 1026.2 -9.9 -9.999 -99.9 -99.99 -9.99
2018/12/13 12:00 EST    2.36   3.36    0  208    1  48.9  40.3 1026.0 -9.9 -9.999 -99.9 -99.99 -9.99
2018/12/13 12:06 EST    2.36   3.36    2  261    2  47.8  40.3 1025.8 -9.9 -9.999 -99.9 -99.99 -9.99
2018/12/13 12:12 EST    2.36   3.36    1  252    3  48.4  40.3 1025.8 -9.9 -9.999 -99.9 -99.99 -9.99
2018/12/13 12:18 EST    2.36   3.36    1  255    2  48.4  40.3 1025.8 -9.9 -9.999 -99.9 -99.99 -9.99
2018/12/13 12:24 EST    2.35   3.35    1  246    1  48.4  40.3 1025.6 -9.9 -9.999 -99.9 -99.99 -9.99
2018/12/13 12:30 EST    2.34   3.34    2  245    2  48.4  40.3 1025.6 -9.9 -9.999 -99.9 -99.99 -9.99
2018/12/13 12:36 EST    2.33   3.32    2  206    2  49.1  40.3 1025.6 -9.9 -9.999 -99.9 -99.99 -9.99
2018/12/13 12:42 EST    2.31   3.31    2  197    3  47.8  40.3 1025.6 -9.9 -9.999 -99.9 -99.99 -9.99
2018/12/13 12:48 EST    2.29   3.28    2  178    3  48.4  40.3 1025.6 -9.9 -9.999 -99.9 -99.99 -9.99
2018/12/13 12:54 EST    2.27   3.25    0  175    2  49.6  40.3 1025.6 -9.9 -9.999 -99.9 -99.99 -9.99
2018/12/13 13:00 EST    2.25   3.23    0  225    3  50.9  40.3 1025.6 -9.9 -9.999 -99.9 -99.99 -9.99
2018/12/13 13:06 EST    2.22   3.20    2  208    3  51.1  40.3 1025.6 -9.9 -9.999 -99.9 -99.99 -9.99
2018/12/13 13:12 EST    2.20   3.17    3  260    4  50.9  40.3 1025.6 -9.9 -9.999 -99.9 -99.99 -9.99
2018/12/13 13:18 EST    2.16 -99.99 -999 -999 -999 -99.9 -99.9 -999.9 -9.9 -9.999 -99.9 -99.99 -9.99
2018/12/13 13:24 EST    2.13   3.11    3  232    5  50.2  40.3 1025.6 -9.9 -9.999 -99.9 -99.99 -9.99
2018/12/13 13:30 EST    2.09   3.07    2  222    3  51.8  40.3 1025.7 -9.9 -9.999 -99.9 -99.99 -9.99
2018/12/13 13:36 EST    2.05   3.02    2  242    3  51.8  40.3 1025.7 -9.9 -9.999 -99.9 -99.99 -9.99
2018/12/13 13:42 EST    2.01   2.98    3  262    3  51.3  40.3 1025.7 -9.9 -9.999 -99.9 -99.99 -9.99
2018/12/13 13:48 EST    1.97   2.93    1  245    4  51.3  40.3 1025.6 -9.9 -9.999 -99.9 -99.99 -9.99
2018/12/13 13:54 EST    1.92   2.87    2  318    3  52.2  40.3 1025.7 -9.9 -9.999 -99.9 -99.99 -9.99
2018/12/13 14:00 EST    1.87   2.81    1  321    3  52.7  40.5 1025.8 -9.9 -9.999 -99.9 -99.99 -9.99
2018/12/13 14:06 EST    1.82   2.77    2  347    3  53.1  40.5 1025.7 -9.9 -9.999 -99.9 -99.99 -9.99
2018/12/13 14:12 EST    1.77   2.72    1  349    4  52.9  40.5 1025.8 -9.9 -9.999 -99.9 -99.99 -9.99
2018/12/13 14:18 EST    1.72   2.65    0  128    5  52.7  40.5 1025.9 -9.9 -9.999 -99.9 -99.99 -9.99
2018/12/13 14:24 EST    1.67   2.60    1   26    3  53.1  40.5 1025.9 -9.9 -9.999 -99.9 -99.99 -9.99
2018/12/13 14:30 EST    1.62   2.55    1   37    4  52.7  40.5 1026.1 -9.9 -9.999 -99.9 -99.99 -9.99
2018/12/13 14:36 EST    1.56   2.50    1  226    1  52.7  40.5 1026.2 -9.9 -9.999 -99.9 -99.99 -9.99
2018/12/13 14:42 EST    1.51   2.45    3  261    3  52.2  40.5 1026.2 -9.9 -9.999 -99.9 -99.99 -9.99
2018/12/13 14:48 EST    1.45   2.40    1  247    4  52.3  40.5 1026.2 -9.9 -9.999 -99.9 -99.99 -9.99
2018/12/13 14:54 EST    1.40   2.35    1  217    3  51.6  40.5 1026.2 -9.9 -9.999 -99.9 -99.99 -9.99
2018/12/13 15:00 EST    1.34   2.30    1  154    3  50.9  40.5 1026.2 -9.9 -9.999 -99.9 -99.99 -9.99
2018/12/13 15:06 EST    1.28   2.25    2  174    3  50.5  40.5 1026.2 -9.9 -9.999 -99.9 -99.99 -9.99
2018/12/13 15:12 EST    1.23   2.21    1  174    3  49.6  40.5 1026.1 -9.9 -9.999 -99.9 -99.99 -9.99
2018/12/13 15:18 EST    1.17   2.16    1  309    2  50.4  40.5 1026.0 -9.9 -9.999 -99.9 -99.99 -9.99
2018/12/13 15:24 EST    1.12   2.12    1   91    4  51.4  40.5 1025.9 -9.9 -9.999 -99.9 -99.99 -9.99
2018/12/13 15:30 EST    1.06   2.07    4  157    4  50.5  40.5 1026.0 -9.9 -9.999 -99.9 -99.99 -9.99
2018/12/13 15:36 EST    1.01   2.02    3  115    6  50.2  40.5 1025.9 -9.9 -9.999 -99.9 -99.99 -9.99
2018/12/13 15:42 EST    0.96   1.98    3  108    5  51.3  40.5 1026.1 -9.9 -9.999 -99.9 -99.99 -9.99
2018/12/13 15:48 EST    0.90   1.93    4  130    6  51.6  40.5 1026.2 -9.9 -9.999 -99.9 -99.99 -9.99
2018/12/13 15:54 EST    0.85   1.89    4  145    6  51.4  40.5 1026.4 -9.9 -9.999 -99.9 -99.99 -9.99
2018/12/13 16:00 EST    0.80   1.85    4  149    5  51.3  40.5 1026.5 -9.9 -9.999 -99.9 -99.99 -9.99
2018/12/13 16:06 EST    0.75   1.80    4  163    6  51.3  40.5 1026.8 -9.9 -9.999 -99.9 -99.99 -9.99
2018/12/13 16:12 EST    0.70   1.77    3  199    5  50.0  40.5 1026.9 -9.9 -9.999 -99.9 -99.99 -9.99
2018/12/13 16:18 EST    0.65   1.73    3  175    4  48.9  40.5 1027.0 -9.9 -9.999 -99.9 -99.99 -9.99
2018/12/13 16:24 EST    0.61   1.69    5  168    6  47.3  40.5 1027.1 -9.9 -9.999 -99.9 -99.99 -9.99
2018/12/13 16:30 EST    0.56   1.65    5  169    6  46.0  40.5 1027.1 -9.9 -9.999 -99.9 -99.99 -9.99
2018/12/13 16:36 EST    0.52   1.60    4  152    7  46.4  40.5 1027.1 -9.9 -9.999 -99.9 -99.99 -9.99
2018/12/13 16:42 EST    0.48   1.56    2  124    4  47.8  40.5 1027.2 -9.9 -9.999 -99.9 -99.99 -9.99
2018/12/13 16:48 EST    0.44   1.52    2  120    4  48.7  40.5 1027.2 -9.9 -9.999 -99.9 -99.99 -9.99
2018/12/13 16:54 EST    0.40   1.49    2  125    4  49.1  40.5 1027.2 -9.9 -9.999 -99.9 -99.99 -9.99
2018/12/13 17:00 EST    0.37   1.45    3  135    4  49.1  40.5 1027.2 -9.9 -9.999 -99.9 -99.99 -9.99
2018/12/13 17:06 EST    0.33   1.42    3  119    4  49.1  40.5 1027.2 -9.9 -9.999 -99.9 -99.99 -9.99
2018/12/13 17:12 EST    0.30   1.38    2   95    4  49.1  40.5 1027.3 -9.9 -9.999 -99.9 -99.99 -9.99
2018/12/13 17:18 EST    0.28   1.35    1  200    3  48.4  40.5 1027.2 -9.9 -9.999 -99.9 -99.99 -9.99
2018/12/13 17:24 EST    0.25   1.32    2  136    3  47.8  40.5 1027.3 -9.9 -9.999 -99.9 -99.99 -9.99
2018/12/13 17:30 EST    0.23   1.29    1  135    3  48.4  40.5 1027.5 -9.9 -9.999 -99.9 -99.99 -9.99
2018/12/13 17:36 EST    0.21   1.26    2  145    2  48.4  40.5 1027.6 -9.9 -9.999 -99.9 -99.99 -9.99
2018/12/13 17:42 EST    0.19   1.23    2   98    2  48.6  40.5 1027.6 -9.9 -9.999 -99.9 -99.99 -9.99
2018/12/13 17:48 EST    0.17   1.20    2  113    3  48.7  40.5 1027.7 -9.9 -9.999 -99.9 -99.99 -9.99
2018/12/13 17:54 EST    0.16   1.18    1  109    4  48.6  40.5 1027.8 -9.9 -9.999 -99.9 -99.99 -9.99
2018/12/13 18:00 EST    0.15   1.15    1  124    2  48.6  40.5 1028.0 -9.9 -9.999 -99.9 -99.99 -9.99
2018/12/13 18:06 EST    0.14   1.13    2  100    4  48.4  40.5 1027.9 -9.9 -9.999 -99.9 -99.99 -9.99
2018/12/13 18:12 EST    0.13   1.10    2  109    4  48.4  40.5 1028.0 -9.9 -9.999 -99.9 -99.99 -9.99
2018/12/13 18:18 EST    0.12   1.09    3  105    4  48.4  40.5 1028.0 -9.9 -9.999 -99.9 -99.99 -9.99
2018/12/13 18:24 EST    0.12   1.07    1   93    4  48.0  40.5 1028.0 -9.9 -9.999 -99.9 -99.99 -9.99
2018/12/13 18:30 EST    0.12   1.05    2  119    3  48.0  40.5 1028.1 -9.9 -9.999 -99.9 -99.99 -9.99
2018/12/13 18:36 EST    0.12   1.03    3  121    4  48.0  40.5 1028.2 -9.9 -9.999 -99.9 -99.99 -9.99
2018/12/13 18:42 EST    0.12   1.02    3  107    4  48.0  40.5 1028.2 -9.9 -9.999 -99.9 -99.99 -9.99
2018/12/13 18:48 EST    0.13   1.00    3  106    5  48.0  40.5 1028.3 -9.9 -9.999 -99.9 -99.99 -9.99
2018/12/13 18:54 EST    0.13   0.99    2  117    4  47.8  40.5 1028.5 -9.9 -9.999 -99.9 -99.99 -9.99
2018/12/13 19:00 EST    0.14   0.98    1  108    3  47.8  40.5 1028.5 -9.9 -9.999 -99.9 -99.99 -9.99
2018/12/13 19:06 EST    0.15   0.98    1   82    2  47.8  40.5 1028.6 -9.9 -9.999 -99.9 -99.99 -9.99
2018/12/13 19:12 EST    0.16   0.98    1   70    3  47.8  40.5 1028.7 -9.9 -9.999 -99.9 -99.99 -9.99
2018/12/13 19:18 EST    0.18   0.98    1  111    2  47.7  40.5 1028.7 -9.9 -9.999 -99.9 -99.99 -9.99
2018/12/13 19:24 EST    0.20   0.98    1   70    3  47.5  40.5 1028.6 -9.9 -9.999 -99.9 -99.99 -9.99
2018/12/13 19:30 EST    0.22   0.99    1   75    3  47.5  40.5 1028.6 -9.9 -9.999 -99.9 -99.99 -9.99
2018/12/13 19:36 EST    0.25   1.01    3   56    6  47.7  40.5 1028.6 -9.9 -9.999 -99.9 -99.99 -9.99
2018/12/13 19:42 EST    0.28   1.04    2   43    4  47.5  40.5 1028.6 -9.9 -9.999 -99.9 -99.99 -9.99
2018/12/13 19:48 EST    0.31   1.07    3   58    4  47.3  40.5 1028.7 -9.9 -9.999 -99.9 -99.99 -9.99
2018/12/13 19:54 EST    0.35   1.10    2   99    4  46.9  40.5 1028.9 -9.9 -9.999 -99.9 -99.99 -9.99
2018/12/13 20:00 EST    0.39   1.15    3   67    5  46.9  40.5 1028.9 -9.9 -9.999 -99.9 -99.99 -9.99
2018/12/13 20:06 EST    0.43   1.20    3   68    5  46.8  40.5 1028.8 -9.9 -9.999 -99.9 -99.99 -9.99
2018/12/13 20:12 EST    0.48   1.26    2  125    4  46.8  40.5 1029.0 -9.9 -9.999 -99.9 -99.99 -9.99
2018/12/13 20:18 EST    0.53   1.32    1   85    3  46.6  40.5 1029.0 -9.9 -9.999 -99.9 -99.99 -9.99
2018/12/13 20:24 EST    0.59   1.39    2   74    3  46.6  40.5 1029.0 -9.9 -9.999 -99.9 -99.99 -9.99
2018/12/13 20:30 EST    0.65   1.46    2  114    3  46.6  40.5 1028.9 -9.9 -9.999 -99.9 -99.99 -9.99
2018/12/13 20:36 EST    0.71   1.54    1   79    3  46.6  40.5 1029.0 -9.9 -9.999 -99.9 -99.99 -9.99
2018/12/13 20:42 EST    0.78   1.61    2  105    4  46.6  40.5 1028.9 -9.9 -9.999 -99.9 -99.99 -9.99
2018/12/13 20:48 EST    0.85   1.69    1   99    4  46.6  40.5 1029.0 -9.9 -9.999 -99.9 -99.99 -9.99
2018/12/13 20:54 EST    0.93   1.77    2  132    3  46.6  40.5 1029.0 -9.9 -9.999 -99.9 -99.99 -9.99
2018/12/13 21:00 EST    1.00   1.86    3  101    4  46.4  40.5 1029.1 -9.9 -9.999 -99.9 -99.99 -9.99
2018/12/13 21:06 EST    1.08 -99.99 -999 -999 -999 -99.9 -99.9 -999.9 -9.9 -9.999 -99.9 -99.99 -9.99
2018/12/13 21:12 EST    1.16   2.03    1  131    3  46.4  40.5 1029.2 -9.9 -9.999 -99.9 -99.99 -9.99
2018/12/13 21:18 EST    1.24   2.11    2  130    3  46.6  40.5 1029.2 -9.9 -9.999 -99.9 -99.99 -9.99
2018/12/13 21:24 EST    1.32   2.19    1  137    2  46.4  40.5 1029.3 -9.9 -9.999 -99.9 -99.99 -9.99
2018/12/13 21:30 EST    1.40   2.27    2  132    3  46.6  40.5 1029.3 -9.9 -9.999 -99.9 -99.99 -9.99
2018/12/13 21:36 EST    1.48   2.35    1  144    4  46.6  40.5 1029.4 -9.9 -9.999 -99.9 -99.99 -9.99
2018/12/13 21:42 EST    1.55   2.42    0  326    2  46.4  40.5 1029.4 -9.9 -9.999 -99.9 -99.99 -9.99
2018/12/13 21:48 EST    1.63   2.49    0    5    1  45.9  40.5 1029.4 -9.9 -9.999 -99.9 -99.99 -9.99
2018/12/13 21:54 EST    1.71   2.55    0   45    0  45.7  40.5 1029.4 -9.9 -9.999 -99.9 -99.99 -9.99
2018/12/13 22:00 EST    1.78   2.62    0    0    1  45.7  40.5 1029.4 -9.9 -9.999 -99.9 -99.99 -9.99
2018/12/13 22:06 EST    1.85   2.68    1   46    1  45.1  40.5 1029.4 -9.9 -9.999 -99.9 -99.99 -9.99
2018/12/13 22:12 EST    1.91   2.74    2   64    4  45.5  40.5 1029.3 -9.9 -9.999 -99.9 -99.99 -9.99
2018/12/13 22:18 EST    1.98   2.79    2   63    3  45.7  40.5 1029.3 -9.9 -9.999 -99.9 -99.99 -9.99
2018/12/13 22:24 EST    2.04   2.85    2   69    3  46.0  40.5 1029.3 -9.9 -9.999 -99.9 -99.99 -9.99
2018/12/13 22:30 EST    2.09   2.90    1   64    4  46.2  40.5 1029.4 -9.9 -9.999 -99.9 -99.99 -9.99
2018/12/13 22:36 EST    2.14   2.95    2   12    3  46.2  40.5 1029.4 -9.9 -9.999 -99.9 -99.99 -9.99
2018/12/13 22:42 EST    2.19   2.99    3   72    4  46.2  40.5 1029.5 -9.9 -9.999 -99.9 -99.99 -9.99
2018/12/13 22:48 EST    2.24   3.03    3   59    6  46.0  40.5 1029.6 -9.9 -9.999 -99.9 -99.99 -9.99
2018/12/13 22:54 EST    2.28   3.07    3   64    6  46.0  40.5 1029.6 -9.9 -9.999 -99.9 -99.99 -9.99
2018/12/13 23:00 EST    2.31   3.11    4   66    5  46.0  40.5 1029.5 -9.9 -9.999 -99.9 -99.99 -9.99
2018/12/13 23:06 EST    2.35   3.13    4   68    5  45.9  40.5 1029.4 -9.9 -9.999 -99.9 -99.99 -9.99
2018/12/13 23:12 EST    2.37   3.17    3   73    5  45.7  40.5 1029.4 -9.9 -9.999 -99.9 -99.99 -9.99
2018/12/13 23:18 EST    2.40   3.19    2   60    4  45.7  40.5 1029.4 -9.9 -9.999 -99.9 -99.99 -9.99
2018/12/13 23:24 EST    2.42   3.21    2   60    5  45.7  40.5 1029.4 -9.9 -9.999 -99.9 -99.99 -9.99
2018/12/13 23:30 EST    2.44   3.23    3   75    5  45.7  40.5 1029.4 -9.9 -9.999 -99.9 -99.99 -9.99
2018/12/13 23:36 EST    2.46   3.25    2   71    6  45.7  40.5 1029.3 -9.9 -9.999 -99.9 -99.99 -9.99
2018/12/13 23:42 EST    2.47   3.27    3   91    4  45.5  40.5 1029.2 -9.9 -9.999 -99.9 -99.99 -9.99
2018/12/13 23:48 EST    2.49   3.28    1  102    5  45.5  40.5 1029.3 -9.9 -9.999 -99.9 -99.99 -9.99
2018/12/13 23:54 EST    2.49   3.29    3   96    6  45.5  40.5 1029.3 -9.9 -9.999 -99.9 -99.99 -9.99
2018/12/14 00:00 EST    2.50   3.30    3   71    5  45.5  40.5 1029.2 -9.9 -9.999 -99.9 -99.99 -9.99
2018/12/14 00:06 EST    2.50   3.30    2   90    4  45.3  40.5 1029.1 -9.9 -9.999 -99.9 -99.99 -9.99
2018/12/14 00:12 EST    2.51   3.30    3   98    5  45.3  40.5 1029.3 -9.9 -9.999 -99.9 -99.99 -9.99
2018/12/14 00:18 EST    2.51   3.30    2   89    5  45.1  40.5 1029.2 -9.9 -9.999 -99.9 -99.99 -9.99
2018/12/14 00:24 EST    2.50   3.30    3   96    4  45.1  40.5 1029.1 -9.9 -9.999 -99.9 -99.99 -9.99
2018/12/14 00:30 EST    2.50   3.29    2   80    4  45.0  40.5 1029.1 -9.9 -9.999 -99.9 -99.99 -9.99
2018/12/14 00:36 EST    2.49   3.28    2   83    3  44.8  40.5 1029.1 -9.9 -9.999 -99.9 -99.99 -9.99
2018/12/14 00:42 EST    2.48   3.27    2   90    4  45.0  40.5 1029.2 -9.9 -9.999 -99.9 -99.99 -9.99
2018/12/14 00:48 EST    2.47   3.24    2   90    4  44.8  40.5 1029.3 -9.9 -9.999 -99.9 -99.99 -9.99
2018/12/14 00:54 EST    2.45   3.22    2   79    4  44.6  40.5 1029.2 -9.9 -9.999 -99.9 -99.99 -9.99
2018/12/14 01:00 EST    2.43   3.20    2   72    4  44.6  40.5 1029.1 -9.9 -9.999 -99.9 -99.99 -9.99
2018/12/14 01:06 EST    2.41   3.17    2   80    3  44.6  40.5 1029.2 -9.9 -9.999 -99.9 -99.99 -9.99
2018/12/14 01:12 EST    2.39   3.14    3   57    5  44.4  40.5 1029.2 -9.9 -9.999 -99.9 -99.99 -9.99
2018/12/14 01:18 EST    2.37   3.11    2   71    5  44.4  40.5 1029.2 -9.9 -9.999 -99.9 -99.99 -9.99
2018/12/14 01:24 EST    2.34   3.08    3   53    6  44.2  40.5 1029.2 -9.9 -9.999 -99.9 -99.99 -9.99
2018/12/14 01:30 EST    2.31   3.04    2   65    6  44.1  40.5 1029.2 -9.9 -9.999 -99.9 -99.99 -9.99
2018/12/14 01:36 EST    2.28   3.01    3   79    5  44.1  40.5 1029.3 -9.9 -9.999 -99.9 -99.99 -9.99
2018/12/14 01:42 EST    2.24   2.97    1   78    4  43.7  40.5 1029.5 -9.9 -9.999 -99.9 -99.99 -9.99
2018/12/14 01:48 EST    2.20   2.92    1   75    4  43.7  40.5 1029.6 -9.9 -9.999 -99.9 -99.99 -9.99
2018/12/14 01:54 EST    2.16   2.87    3   61    5  43.5  40.5 1029.5 -9.9 -9.999 -99.9 -99.99 -9.99
2018/12/14 02:00 EST    2.12   2.83    3   68    5  43.5  40.5 1029.5 -9.9 -9.999 -99.9 -99.99 -9.99
2018/12/14 02:06 EST    2.08   2.78    2   68    4  43.3  40.5 1029.6 -9.9 -9.999 -99.9 -99.99 -9.99
2018/12/14 02:12 EST    2.03   2.73    1   53    4  43.2  40.5 1029.5 -9.9 -9.999 -99.9 -99.99 -9.99
2018/12/14 02:18 EST    1.98   2.68    1   70    4  43.0  40.5 1029.5 -9.9 -9.999 -99.9 -99.99 -9.99
2018/12/14 02:24 EST    1.93   2.63    0  234    3  42.8  40.5 1029.5 -9.9 -9.999 -99.9 -99.99 -9.99
2018/12/14 02:30 EST    1.88   2.58    1  144    3  42.8  40.5 1029.6 -9.9 -9.999 -99.9 -99.99 -9.99
2018/12/14 02:36 EST    1.83   2.53    1  122    3  42.6  40.5 1029.5 -9.9 -9.999 -99.9 -99.99 -9.99
2018/12/14 02:42 EST    1.78 -99.99 -999 -999 -999 -99.9 -99.9 -999.9 -9.9 -9.999 -99.9 -99.99 -9.99

Revised: 08/08/2018
NOAA / National Ocean Service
Web site owner: Center for Operational Oceanographic Products and Services